<?xml version="1.0" encoding="UTF-8" standalone="no" ?>
<gpx xmlns="http://www.topografix.com/GPX/1/1" xmlns:xsi="http://www.w3.org/2001/XMLSchema-instance" xsi:schemaLocation="http://www.topografix.com/GPX/1/1 http://www.topografix.com/GPX/1/1/gpx.xsd" version="1.1" creator="VisuGPX - https://www.visugpx.com">
  <metadata>
    <name>Beaumont Boucle roc du corbeau</name>
    <desc><![CDATA[Randonnée faite le 04/11/2010 en 3h15   1h15 de pause environ ; Boucle du Roc du Corbeau depuis Beaumont-du-Périgord : Beaumont - Le Moulier de Surier - Château de Bannes - La Vergne Basse - Beaumont : balisage PR - GRP - PR jaune très bien fait, malgré quelques panneaux assez énigmatiques concernant les directions et les distances. Paysage de champs et vergers autour de Beaumont, puis beaucoup plus forestier ensuite ; nombreuses montées et descentes, mais parcours facile et agréable ; Beaumont se visite rapidement, et le Château de Bannes ne se visite pas du tout (hélas !) : une signalisation soigneusement répétitive nous rappelle qu\'il s\'agit bien d\'une \"propriété privée défense d\'entrer\".]]></desc>
  </metadata>
  <trk>
    <name><![CDATA[NOV-04-10 07:02:50 PM]]></name>
    <trkseg>
      <trkpt lat="44.76664" lon="0.76726">
        <ele>143</ele>
        <time>2010-11-04T09:27:31Z</time>
      </trkpt>
      <trkpt lat="44.76664" lon="0.76726">
        <ele>143</ele>
        <time>2010-11-04T09:27:32Z</time>
      </trkpt>
      <trkpt lat="44.76664" lon="0.76726">
        <ele>143</ele>
        <time>2010-11-04T09:27:35Z</time>
      </trkpt>
      <trkpt lat="44.76664" lon="0.76725">
        <ele>143</ele>
        <time>2010-11-04T09:27:54Z</time>
      </trkpt>
      <trkpt lat="44.76671" lon="0.7673">
        <ele>145</ele>
        <time>2010-11-04T09:28:43Z</time>
      </trkpt>
      <trkpt lat="44.76673" lon="0.76731">
        <ele>145</ele>
        <time>2010-11-04T09:28:46Z</time>
      </trkpt>
      <trkpt lat="44.76674" lon="0.76731">
        <ele>145</ele>
        <time>2010-11-04T09:28:47Z</time>
      </trkpt>
      <trkpt lat="44.76685" lon="0.76734">
        <ele>145</ele>
        <time>2010-11-04T09:28:59Z</time>
      </trkpt>
      <trkpt lat="44.76689" lon="0.76735">
        <ele>145</ele>
        <time>2010-11-04T09:29:02Z</time>
      </trkpt>
      <trkpt lat="44.76691" lon="0.76736">
        <ele>145</ele>
        <time>2010-11-04T09:29:03Z</time>
      </trkpt>
      <trkpt lat="44.76692" lon="0.76736">
        <ele>145</ele>
        <time>2010-11-04T09:29:04Z</time>
      </trkpt>
      <trkpt lat="44.76693" lon="0.76736">
        <ele>145</ele>
        <time>2010-11-04T09:29:05Z</time>
      </trkpt>
      <trkpt lat="44.76694" lon="0.76735">
        <ele>145</ele>
        <time>2010-11-04T09:29:06Z</time>
      </trkpt>
      <trkpt lat="44.76695" lon="0.76735">
        <ele>144</ele>
        <time>2010-11-04T09:29:07Z</time>
      </trkpt>
      <trkpt lat="44.76696" lon="0.76734">
        <ele>144</ele>
        <time>2010-11-04T09:29:08Z</time>
      </trkpt>
      <trkpt lat="44.7671" lon="0.76727">
        <ele>144</ele>
        <time>2010-11-04T09:29:19Z</time>
      </trkpt>
      <trkpt lat="44.76722" lon="0.76726">
        <ele>145</ele>
        <time>2010-11-04T09:29:32Z</time>
      </trkpt>
      <trkpt lat="44.76737" lon="0.76729">
        <ele>145</ele>
        <time>2010-11-04T09:29:45Z</time>
      </trkpt>
      <trkpt lat="44.76744" lon="0.76728">
        <ele>145</ele>
        <time>2010-11-04T09:29:50Z</time>
      </trkpt>
      <trkpt lat="44.76748" lon="0.76726">
        <ele>145</ele>
        <time>2010-11-04T09:29:54Z</time>
      </trkpt>
      <trkpt lat="44.76754" lon="0.76724">
        <ele>144</ele>
        <time>2010-11-04T09:29:59Z</time>
      </trkpt>
      <trkpt lat="44.76758" lon="0.76724">
        <ele>144</ele>
        <time>2010-11-04T09:30:02Z</time>
      </trkpt>
      <trkpt lat="44.76769" lon="0.76723">
        <ele>144</ele>
        <time>2010-11-04T09:30:15Z</time>
      </trkpt>
      <trkpt lat="44.7677" lon="0.76724">
        <ele>144</ele>
        <time>2010-11-04T09:30:16Z</time>
      </trkpt>
      <trkpt lat="44.76783" lon="0.76722">
        <ele>143</ele>
        <time>2010-11-04T09:30:29Z</time>
      </trkpt>
      <trkpt lat="44.76799" lon="0.76725">
        <ele>143</ele>
        <time>2010-11-04T09:30:45Z</time>
      </trkpt>
      <trkpt lat="44.76817" lon="0.76725">
        <ele>142</ele>
        <time>2010-11-04T09:31:00Z</time>
      </trkpt>
      <trkpt lat="44.76836" lon="0.76724">
        <ele>141</ele>
        <time>2010-11-04T09:31:16Z</time>
      </trkpt>
      <trkpt lat="44.7685" lon="0.76721">
        <ele>141</ele>
        <time>2010-11-04T09:31:28Z</time>
      </trkpt>
      <trkpt lat="44.76859" lon="0.76722">
        <ele>141</ele>
        <time>2010-11-04T09:31:41Z</time>
      </trkpt>
      <trkpt lat="44.76861" lon="0.76717">
        <ele>141</ele>
        <time>2010-11-04T09:31:55Z</time>
      </trkpt>
      <trkpt lat="44.76858" lon="0.76722">
        <ele>141</ele>
        <time>2010-11-04T09:32:52Z</time>
      </trkpt>
      <trkpt lat="44.76858" lon="0.76722">
        <ele>141</ele>
        <time>2010-11-04T09:34:25Z</time>
      </trkpt>
      <trkpt lat="44.76858" lon="0.76722">
        <ele>141</ele>
        <time>2010-11-04T09:36:24Z</time>
      </trkpt>
      <trkpt lat="44.76858" lon="0.76722">
        <ele>141</ele>
        <time>2010-11-04T09:36:38Z</time>
      </trkpt>
      <trkpt lat="44.76853" lon="0.7675">
        <ele>142</ele>
        <time>2010-11-04T09:37:09Z</time>
      </trkpt>
      <trkpt lat="44.76853" lon="0.7675">
        <ele>142</ele>
        <time>2010-11-04T09:37:58Z</time>
      </trkpt>
      <trkpt lat="44.7685" lon="0.76755">
        <ele>142</ele>
        <time>2010-11-04T09:38:43Z</time>
      </trkpt>
      <trkpt lat="44.76894" lon="0.76722">
        <ele>141</ele>
        <time>2010-11-04T09:39:14Z</time>
      </trkpt>
      <trkpt lat="44.76898" lon="0.76704">
        <ele>140</ele>
        <time>2010-11-04T09:39:20Z</time>
      </trkpt>
      <trkpt lat="44.76896" lon="0.767">
        <ele>140</ele>
        <time>2010-11-04T09:39:23Z</time>
      </trkpt>
      <trkpt lat="44.76891" lon="0.76695">
        <ele>140</ele>
        <time>2010-11-04T09:39:27Z</time>
      </trkpt>
      <trkpt lat="44.76899" lon="0.7668">
        <ele>139</ele>
        <time>2010-11-04T09:39:37Z</time>
      </trkpt>
      <trkpt lat="44.76896" lon="0.76661">
        <ele>135</ele>
        <time>2010-11-04T09:39:51Z</time>
      </trkpt>
      <trkpt lat="44.76895" lon="0.76638">
        <ele>133</ele>
        <time>2010-11-04T09:40:10Z</time>
      </trkpt>
      <trkpt lat="44.76895" lon="0.76637">
        <ele>133</ele>
        <time>2010-11-04T09:40:26Z</time>
      </trkpt>
      <trkpt lat="44.76895" lon="0.76637">
        <ele>133</ele>
        <time>2010-11-04T09:40:28Z</time>
      </trkpt>
      <trkpt lat="44.76897" lon="0.76637">
        <ele>133</ele>
        <time>2010-11-04T09:41:02Z</time>
      </trkpt>
      <trkpt lat="44.76895" lon="0.76645">
        <ele>134</ele>
        <time>2010-11-04T09:41:21Z</time>
      </trkpt>
      <trkpt lat="44.76898" lon="0.76643">
        <ele>134</ele>
        <time>2010-11-04T09:41:32Z</time>
      </trkpt>
      <trkpt lat="44.7692" lon="0.76637">
        <ele>135</ele>
        <time>2010-11-04T09:41:49Z</time>
      </trkpt>
      <trkpt lat="44.76942" lon="0.76627">
        <ele>134</ele>
        <time>2010-11-04T09:42:07Z</time>
      </trkpt>
      <trkpt lat="44.76955" lon="0.76622">
        <ele>134</ele>
        <time>2010-11-04T09:42:17Z</time>
      </trkpt>
      <trkpt lat="44.76964" lon="0.76616">
        <ele>134</ele>
        <time>2010-11-04T09:42:25Z</time>
      </trkpt>
      <trkpt lat="44.7698" lon="0.76612">
        <ele>134</ele>
        <time>2010-11-04T09:42:41Z</time>
      </trkpt>
      <trkpt lat="44.76985" lon="0.7661">
        <ele>134</ele>
        <time>2010-11-04T09:42:46Z</time>
      </trkpt>
      <trkpt lat="44.77001" lon="0.76604">
        <ele>135</ele>
        <time>2010-11-04T09:42:59Z</time>
      </trkpt>
      <trkpt lat="44.77003" lon="0.76603">
        <ele>135</ele>
        <time>2010-11-04T09:43:01Z</time>
      </trkpt>
      <trkpt lat="44.77021" lon="0.76593">
        <ele>135</ele>
        <time>2010-11-04T09:43:18Z</time>
      </trkpt>
      <trkpt lat="44.77035" lon="0.76584">
        <ele>136</ele>
        <time>2010-11-04T09:43:31Z</time>
      </trkpt>
      <trkpt lat="44.77053" lon="0.76573">
        <ele>131</ele>
        <time>2010-11-04T09:43:47Z</time>
      </trkpt>
      <trkpt lat="44.7707" lon="0.76561">
        <ele>131</ele>
        <time>2010-11-04T09:44:02Z</time>
      </trkpt>
      <trkpt lat="44.77087" lon="0.7655">
        <ele>134</ele>
        <time>2010-11-04T09:44:18Z</time>
      </trkpt>
      <trkpt lat="44.77104" lon="0.76538">
        <ele>133</ele>
        <time>2010-11-04T09:44:34Z</time>
      </trkpt>
      <trkpt lat="44.77124" lon="0.76528">
        <ele>134</ele>
        <time>2010-11-04T09:44:49Z</time>
      </trkpt>
      <trkpt lat="44.77135" lon="0.76516">
        <ele>134</ele>
        <time>2010-11-04T09:45:00Z</time>
      </trkpt>
      <trkpt lat="44.77151" lon="0.76508">
        <ele>134</ele>
        <time>2010-11-04T09:45:10Z</time>
      </trkpt>
      <trkpt lat="44.77158" lon="0.76495">
        <ele>132</ele>
        <time>2010-11-04T09:45:21Z</time>
      </trkpt>
      <trkpt lat="44.77162" lon="0.76487">
        <ele>131</ele>
        <time>2010-11-04T09:45:27Z</time>
      </trkpt>
      <trkpt lat="44.77173" lon="0.76463">
        <ele>130</ele>
        <time>2010-11-04T09:45:44Z</time>
      </trkpt>
      <trkpt lat="44.7718" lon="0.76444">
        <ele>128</ele>
        <time>2010-11-04T09:45:58Z</time>
      </trkpt>
      <trkpt lat="44.77186" lon="0.76419">
        <ele>127</ele>
        <time>2010-11-04T09:46:14Z</time>
      </trkpt>
      <trkpt lat="44.772" lon="0.76403">
        <ele>122</ele>
        <time>2010-11-04T09:46:28Z</time>
      </trkpt>
      <trkpt lat="44.77203" lon="0.764">
        <ele>121</ele>
        <time>2010-11-04T09:46:31Z</time>
      </trkpt>
      <trkpt lat="44.77205" lon="0.76398">
        <ele>121</ele>
        <time>2010-11-04T09:46:33Z</time>
      </trkpt>
      <trkpt lat="44.77215" lon="0.7639">
        <ele>121</ele>
        <time>2010-11-04T09:46:42Z</time>
      </trkpt>
      <trkpt lat="44.77227" lon="0.76384">
        <ele>121</ele>
        <time>2010-11-04T09:46:53Z</time>
      </trkpt>
      <trkpt lat="44.77228" lon="0.7638">
        <ele>121</ele>
        <time>2010-11-04T09:46:56Z</time>
      </trkpt>
      <trkpt lat="44.77229" lon="0.76357">
        <ele>120</ele>
        <time>2010-11-04T09:47:10Z</time>
      </trkpt>
      <trkpt lat="44.77232" lon="0.7634">
        <ele>120</ele>
        <time>2010-11-04T09:47:20Z</time>
      </trkpt>
      <trkpt lat="44.77233" lon="0.76329">
        <ele>117</ele>
        <time>2010-11-04T09:47:26Z</time>
      </trkpt>
      <trkpt lat="44.77236" lon="0.76307">
        <ele>116</ele>
        <time>2010-11-04T09:47:40Z</time>
      </trkpt>
      <trkpt lat="44.77236" lon="0.76294">
        <ele>116</ele>
        <time>2010-11-04T09:47:47Z</time>
      </trkpt>
      <trkpt lat="44.77235" lon="0.7627">
        <ele>116</ele>
        <time>2010-11-04T09:48:01Z</time>
      </trkpt>
      <trkpt lat="44.7724" lon="0.76252">
        <ele>117</ele>
        <time>2010-11-04T09:48:13Z</time>
      </trkpt>
      <trkpt lat="44.77241" lon="0.76244">
        <ele>115</ele>
        <time>2010-11-04T09:48:24Z</time>
      </trkpt>
      <trkpt lat="44.77242" lon="0.76238">
        <ele>114</ele>
        <time>2010-11-04T09:48:34Z</time>
      </trkpt>
      <trkpt lat="44.77246" lon="0.76219">
        <ele>112</ele>
        <time>2010-11-04T09:48:44Z</time>
      </trkpt>
      <trkpt lat="44.77251" lon="0.76188">
        <ele>113</ele>
        <time>2010-11-04T09:48:55Z</time>
      </trkpt>
      <trkpt lat="44.77251" lon="0.76161">
        <ele>111</ele>
        <time>2010-11-04T09:49:10Z</time>
      </trkpt>
      <trkpt lat="44.77251" lon="0.76158">
        <ele>111</ele>
        <time>2010-11-04T09:49:12Z</time>
      </trkpt>
      <trkpt lat="44.77249" lon="0.76139">
        <ele>107</ele>
        <time>2010-11-04T09:49:23Z</time>
      </trkpt>
      <trkpt lat="44.77248" lon="0.76137">
        <ele>107</ele>
        <time>2010-11-04T09:49:24Z</time>
      </trkpt>
      <trkpt lat="44.77246" lon="0.76114">
        <ele>106</ele>
        <time>2010-11-04T09:49:38Z</time>
      </trkpt>
      <trkpt lat="44.77246" lon="0.76109">
        <ele>106</ele>
        <time>2010-11-04T09:49:41Z</time>
      </trkpt>
      <trkpt lat="44.77243" lon="0.76079">
        <ele>104</ele>
        <time>2010-11-04T09:49:58Z</time>
      </trkpt>
      <trkpt lat="44.77244" lon="0.76068">
        <ele>102</ele>
        <time>2010-11-04T09:50:05Z</time>
      </trkpt>
      <trkpt lat="44.77248" lon="0.76054">
        <ele>100</ele>
        <time>2010-11-04T09:50:16Z</time>
      </trkpt>
      <trkpt lat="44.77253" lon="0.76031">
        <ele>99</ele>
        <time>2010-11-04T09:50:31Z</time>
      </trkpt>
      <trkpt lat="44.77256" lon="0.76019">
        <ele>98</ele>
        <time>2010-11-04T09:50:44Z</time>
      </trkpt>
      <trkpt lat="44.77259" lon="0.76005">
        <ele>96</ele>
        <time>2010-11-04T09:50:58Z</time>
      </trkpt>
      <trkpt lat="44.77268" lon="0.75987">
        <ele>92</ele>
        <time>2010-11-04T09:51:13Z</time>
      </trkpt>
      <trkpt lat="44.7727" lon="0.75984">
        <ele>92</ele>
        <time>2010-11-04T09:51:51Z</time>
      </trkpt>
      <trkpt lat="44.77271" lon="0.75983">
        <ele>92</ele>
        <time>2010-11-04T09:51:52Z</time>
      </trkpt>
      <trkpt lat="44.77275" lon="0.75975">
        <ele>91</ele>
        <time>2010-11-04T09:51:57Z</time>
      </trkpt>
      <trkpt lat="44.77277" lon="0.7597">
        <ele>91</ele>
        <time>2010-11-04T09:52:01Z</time>
      </trkpt>
      <trkpt lat="44.77277" lon="0.75968">
        <ele>91</ele>
        <time>2010-11-04T09:52:02Z</time>
      </trkpt>
      <trkpt lat="44.77279" lon="0.75956">
        <ele>90</ele>
        <time>2010-11-04T09:52:09Z</time>
      </trkpt>
      <trkpt lat="44.77282" lon="0.75935">
        <ele>89</ele>
        <time>2010-11-04T09:52:22Z</time>
      </trkpt>
      <trkpt lat="44.77285" lon="0.75921">
        <ele>89</ele>
        <time>2010-11-04T09:52:31Z</time>
      </trkpt>
      <trkpt lat="44.77286" lon="0.75912">
        <ele>86</ele>
        <time>2010-11-04T09:52:37Z</time>
      </trkpt>
      <trkpt lat="44.77286" lon="0.75908">
        <ele>86</ele>
        <time>2010-11-04T09:52:39Z</time>
      </trkpt>
      <trkpt lat="44.77289" lon="0.75893">
        <ele>86</ele>
        <time>2010-11-04T09:52:49Z</time>
      </trkpt>
      <trkpt lat="44.77301" lon="0.75861">
        <ele>86</ele>
        <time>2010-11-04T09:53:06Z</time>
      </trkpt>
      <trkpt lat="44.77309" lon="0.75847">
        <ele>87</ele>
        <time>2010-11-04T09:53:15Z</time>
      </trkpt>
      <trkpt lat="44.77316" lon="0.75836">
        <ele>87</ele>
        <time>2010-11-04T09:53:22Z</time>
      </trkpt>
      <trkpt lat="44.77323" lon="0.75823">
        <ele>86</ele>
        <time>2010-11-04T09:53:30Z</time>
      </trkpt>
      <trkpt lat="44.77323" lon="0.75819">
        <ele>86</ele>
        <time>2010-11-04T09:53:33Z</time>
      </trkpt>
      <trkpt lat="44.77322" lon="0.7582">
        <ele>86</ele>
        <time>2010-11-04T09:53:47Z</time>
      </trkpt>
      <trkpt lat="44.77321" lon="0.75819">
        <ele>86</ele>
        <time>2010-11-04T09:53:52Z</time>
      </trkpt>
      <trkpt lat="44.77324" lon="0.75817">
        <ele>86</ele>
        <time>2010-11-04T09:53:56Z</time>
      </trkpt>
      <trkpt lat="44.77337" lon="0.75807">
        <ele>88</ele>
        <time>2010-11-04T09:54:10Z</time>
      </trkpt>
      <trkpt lat="44.77338" lon="0.75806">
        <ele>88</ele>
        <time>2010-11-04T09:54:11Z</time>
      </trkpt>
      <trkpt lat="44.7734" lon="0.75803">
        <ele>88</ele>
        <time>2010-11-04T09:54:13Z</time>
      </trkpt>
      <trkpt lat="44.7735" lon="0.7579">
        <ele>87</ele>
        <time>2010-11-04T09:54:22Z</time>
      </trkpt>
      <trkpt lat="44.77352" lon="0.75787">
        <ele>87</ele>
        <time>2010-11-04T09:54:24Z</time>
      </trkpt>
      <trkpt lat="44.7737" lon="0.75766">
        <ele>87</ele>
        <time>2010-11-04T09:54:42Z</time>
      </trkpt>
      <trkpt lat="44.77386" lon="0.75753">
        <ele>87</ele>
        <time>2010-11-04T09:54:55Z</time>
      </trkpt>
      <trkpt lat="44.77388" lon="0.75751">
        <ele>87</ele>
        <time>2010-11-04T09:54:57Z</time>
      </trkpt>
      <trkpt lat="44.7739" lon="0.75749">
        <ele>84</ele>
        <time>2010-11-04T09:54:59Z</time>
      </trkpt>
      <trkpt lat="44.7741" lon="0.75738">
        <ele>84</ele>
        <time>2010-11-04T09:55:15Z</time>
      </trkpt>
      <trkpt lat="44.77419" lon="0.75732">
        <ele>85</ele>
        <time>2010-11-04T09:55:27Z</time>
      </trkpt>
      <trkpt lat="44.77434" lon="0.75727">
        <ele>84</ele>
        <time>2010-11-04T09:55:39Z</time>
      </trkpt>
      <trkpt lat="44.77454" lon="0.75717">
        <ele>84</ele>
        <time>2010-11-04T09:55:55Z</time>
      </trkpt>
      <trkpt lat="44.77471" lon="0.75709">
        <ele>84</ele>
        <time>2010-11-04T09:56:12Z</time>
      </trkpt>
      <trkpt lat="44.77489" lon="0.757">
        <ele>83</ele>
        <time>2010-11-04T09:56:27Z</time>
      </trkpt>
      <trkpt lat="44.77491" lon="0.757">
        <ele>83</ele>
        <time>2010-11-04T09:56:29Z</time>
      </trkpt>
      <trkpt lat="44.77502" lon="0.75695">
        <ele>84</ele>
        <time>2010-11-04T09:56:37Z</time>
      </trkpt>
      <trkpt lat="44.77523" lon="0.75686">
        <ele>83</ele>
        <time>2010-11-04T09:56:54Z</time>
      </trkpt>
      <trkpt lat="44.77524" lon="0.75685">
        <ele>83</ele>
        <time>2010-11-04T09:56:55Z</time>
      </trkpt>
      <trkpt lat="44.77537" lon="0.75679">
        <ele>83</ele>
        <time>2010-11-04T09:57:06Z</time>
      </trkpt>
      <trkpt lat="44.77558" lon="0.75673">
        <ele>83</ele>
        <time>2010-11-04T09:57:22Z</time>
      </trkpt>
      <trkpt lat="44.77578" lon="0.75669">
        <ele>80</ele>
        <time>2010-11-04T09:57:37Z</time>
      </trkpt>
      <trkpt lat="44.77596" lon="0.75664">
        <ele>78</ele>
        <time>2010-11-04T09:57:51Z</time>
      </trkpt>
      <trkpt lat="44.77614" lon="0.75649">
        <ele>76</ele>
        <time>2010-11-04T09:58:08Z</time>
      </trkpt>
      <trkpt lat="44.77627" lon="0.75641">
        <ele>76</ele>
        <time>2010-11-04T09:58:19Z</time>
      </trkpt>
      <trkpt lat="44.77643" lon="0.75629">
        <ele>75</ele>
        <time>2010-11-04T09:58:35Z</time>
      </trkpt>
      <trkpt lat="44.77657" lon="0.75617">
        <ele>75</ele>
        <time>2010-11-04T09:58:47Z</time>
      </trkpt>
      <trkpt lat="44.77672" lon="0.75604">
        <ele>75</ele>
        <time>2010-11-04T09:59:02Z</time>
      </trkpt>
      <trkpt lat="44.77691" lon="0.75592">
        <ele>75</ele>
        <time>2010-11-04T09:59:17Z</time>
      </trkpt>
      <trkpt lat="44.77699" lon="0.75581">
        <ele>73</ele>
        <time>2010-11-04T09:59:26Z</time>
      </trkpt>
      <trkpt lat="44.77713" lon="0.75573">
        <ele>73</ele>
        <time>2010-11-04T09:59:41Z</time>
      </trkpt>
      <trkpt lat="44.77713" lon="0.75573">
        <ele>73</ele>
        <time>2010-11-04T09:59:45Z</time>
      </trkpt>
      <trkpt lat="44.77713" lon="0.75573">
        <ele>73</ele>
        <time>2010-11-04T09:59:46Z</time>
      </trkpt>
      <trkpt lat="44.77712" lon="0.75572">
        <ele>73</ele>
        <time>2010-11-04T09:59:50Z</time>
      </trkpt>
      <trkpt lat="44.77712" lon="0.75566">
        <ele>73</ele>
        <time>2010-11-04T09:59:53Z</time>
      </trkpt>
      <trkpt lat="44.77719" lon="0.75537">
        <ele>72</ele>
        <time>2010-11-04T10:00:11Z</time>
      </trkpt>
      <trkpt lat="44.7772" lon="0.75529">
        <ele>72</ele>
        <time>2010-11-04T10:00:16Z</time>
      </trkpt>
      <trkpt lat="44.7772" lon="0.75527">
        <ele>72</ele>
        <time>2010-11-04T10:00:17Z</time>
      </trkpt>
      <trkpt lat="44.77721" lon="0.75506">
        <ele>72</ele>
        <time>2010-11-04T10:00:31Z</time>
      </trkpt>
      <trkpt lat="44.77725" lon="0.75478">
        <ele>72</ele>
        <time>2010-11-04T10:00:47Z</time>
      </trkpt>
      <trkpt lat="44.77727" lon="0.75457">
        <ele>72</ele>
        <time>2010-11-04T10:01:00Z</time>
      </trkpt>
      <trkpt lat="44.77733" lon="0.75438">
        <ele>72</ele>
        <time>2010-11-04T10:01:13Z</time>
      </trkpt>
      <trkpt lat="44.77736" lon="0.75431">
        <ele>73</ele>
        <time>2010-11-04T10:01:18Z</time>
      </trkpt>
      <trkpt lat="44.77743" lon="0.75422">
        <ele>73</ele>
        <time>2010-11-04T10:01:26Z</time>
      </trkpt>
      <trkpt lat="44.77749" lon="0.75418">
        <ele>73</ele>
        <time>2010-11-04T10:01:31Z</time>
      </trkpt>
      <trkpt lat="44.77766" lon="0.75408">
        <ele>76</ele>
        <time>2010-11-04T10:01:47Z</time>
      </trkpt>
      <trkpt lat="44.77771" lon="0.75405">
        <ele>76</ele>
        <time>2010-11-04T10:01:52Z</time>
      </trkpt>
      <trkpt lat="44.77788" lon="0.75395">
        <ele>77</ele>
        <time>2010-11-04T10:02:07Z</time>
      </trkpt>
      <trkpt lat="44.77802" lon="0.75386">
        <ele>77</ele>
        <time>2010-11-04T10:02:21Z</time>
      </trkpt>
      <trkpt lat="44.77814" lon="0.75378">
        <ele>77</ele>
        <time>2010-11-04T10:02:34Z</time>
      </trkpt>
      <trkpt lat="44.77823" lon="0.75368">
        <ele>78</ele>
        <time>2010-11-04T10:02:44Z</time>
      </trkpt>
      <trkpt lat="44.77824" lon="0.75365">
        <ele>78</ele>
        <time>2010-11-04T10:02:47Z</time>
      </trkpt>
      <trkpt lat="44.77831" lon="0.75355">
        <ele>79</ele>
        <time>2010-11-04T10:02:56Z</time>
      </trkpt>
      <trkpt lat="44.77839" lon="0.75346">
        <ele>79</ele>
        <time>2010-11-04T10:03:05Z</time>
      </trkpt>
      <trkpt lat="44.7784" lon="0.75343">
        <ele>79</ele>
        <time>2010-11-04T10:03:07Z</time>
      </trkpt>
      <trkpt lat="44.77857" lon="0.75322">
        <ele>84</ele>
        <time>2010-11-04T10:03:26Z</time>
      </trkpt>
      <trkpt lat="44.77865" lon="0.75314">
        <ele>84</ele>
        <time>2010-11-04T10:03:40Z</time>
      </trkpt>
      <trkpt lat="44.77877" lon="0.753">
        <ele>84</ele>
        <time>2010-11-04T10:03:53Z</time>
      </trkpt>
      <trkpt lat="44.77883" lon="0.75294">
        <ele>85</ele>
        <time>2010-11-04T10:04:07Z</time>
      </trkpt>
      <trkpt lat="44.77898" lon="0.75277">
        <ele>85</ele>
        <time>2010-11-04T10:04:44Z</time>
      </trkpt>
      <trkpt lat="44.77901" lon="0.75273">
        <ele>85</ele>
        <time>2010-11-04T10:04:48Z</time>
      </trkpt>
      <trkpt lat="44.77903" lon="0.75271">
        <ele>85</ele>
        <time>2010-11-04T10:04:49Z</time>
      </trkpt>
      <trkpt lat="44.77912" lon="0.7526">
        <ele>84</ele>
        <time>2010-11-04T10:04:59Z</time>
      </trkpt>
      <trkpt lat="44.77913" lon="0.75259">
        <ele>84</ele>
        <time>2010-11-04T10:05:00Z</time>
      </trkpt>
      <trkpt lat="44.77918" lon="0.75254">
        <ele>83</ele>
        <time>2010-11-04T10:05:05Z</time>
      </trkpt>
      <trkpt lat="44.77928" lon="0.7524">
        <ele>85</ele>
        <time>2010-11-04T10:05:19Z</time>
      </trkpt>
      <trkpt lat="44.77944" lon="0.75221">
        <ele>86</ele>
        <time>2010-11-04T10:05:37Z</time>
      </trkpt>
      <trkpt lat="44.7796" lon="0.75206">
        <ele>86</ele>
        <time>2010-11-04T10:05:53Z</time>
      </trkpt>
      <trkpt lat="44.77961" lon="0.75206">
        <ele>86</ele>
        <time>2010-11-04T10:05:54Z</time>
      </trkpt>
      <trkpt lat="44.77979" lon="0.75184">
        <ele>86</ele>
        <time>2010-11-04T10:06:12Z</time>
      </trkpt>
      <trkpt lat="44.77983" lon="0.75177">
        <ele>86</ele>
        <time>2010-11-04T10:06:19Z</time>
      </trkpt>
      <trkpt lat="44.77985" lon="0.75168">
        <ele>87</ele>
        <time>2010-11-04T10:06:24Z</time>
      </trkpt>
      <trkpt lat="44.77988" lon="0.75164">
        <ele>91</ele>
        <time>2010-11-04T10:06:26Z</time>
      </trkpt>
      <trkpt lat="44.77989" lon="0.75162">
        <ele>91</ele>
        <time>2010-11-04T10:06:27Z</time>
      </trkpt>
      <trkpt lat="44.77989" lon="0.75161">
        <ele>91</ele>
        <time>2010-11-04T10:06:28Z</time>
      </trkpt>
      <trkpt lat="44.77994" lon="0.75147">
        <ele>93</ele>
        <time>2010-11-04T10:06:37Z</time>
      </trkpt>
      <trkpt lat="44.77999" lon="0.75128">
        <ele>95</ele>
        <time>2010-11-04T10:06:52Z</time>
      </trkpt>
      <trkpt lat="44.78003" lon="0.75127">
        <ele>89</ele>
        <time>2010-11-04T10:07:07Z</time>
      </trkpt>
      <trkpt lat="44.78012" lon="0.75127">
        <ele>89</ele>
        <time>2010-11-04T10:07:15Z</time>
      </trkpt>
      <trkpt lat="44.78025" lon="0.75129">
        <ele>89</ele>
        <time>2010-11-04T10:07:26Z</time>
      </trkpt>
      <trkpt lat="44.78042" lon="0.75134">
        <ele>88</ele>
        <time>2010-11-04T10:07:39Z</time>
      </trkpt>
      <trkpt lat="44.7806" lon="0.75136">
        <ele>87</ele>
        <time>2010-11-04T10:07:55Z</time>
      </trkpt>
      <trkpt lat="44.78083" lon="0.75141">
        <ele>86</ele>
        <time>2010-11-04T10:08:13Z</time>
      </trkpt>
      <trkpt lat="44.78097" lon="0.75144">
        <ele>85</ele>
        <time>2010-11-04T10:08:25Z</time>
      </trkpt>
      <trkpt lat="44.78115" lon="0.75147">
        <ele>86</ele>
        <time>2010-11-04T10:08:39Z</time>
      </trkpt>
      <trkpt lat="44.78135" lon="0.7515">
        <ele>85</ele>
        <time>2010-11-04T10:08:54Z</time>
      </trkpt>
      <trkpt lat="44.78156" lon="0.75154">
        <ele>84</ele>
        <time>2010-11-04T10:09:12Z</time>
      </trkpt>
      <trkpt lat="44.78175" lon="0.75151">
        <ele>84</ele>
        <time>2010-11-04T10:09:29Z</time>
      </trkpt>
      <trkpt lat="44.78176" lon="0.75151">
        <ele>84</ele>
        <time>2010-11-04T10:09:30Z</time>
      </trkpt>
      <trkpt lat="44.78179" lon="0.7515">
        <ele>84</ele>
        <time>2010-11-04T10:09:32Z</time>
      </trkpt>
      <trkpt lat="44.78188" lon="0.7515">
        <ele>85</ele>
        <time>2010-11-04T10:09:39Z</time>
      </trkpt>
      <trkpt lat="44.78206" lon="0.75147">
        <ele>85</ele>
        <time>2010-11-04T10:09:55Z</time>
      </trkpt>
      <trkpt lat="44.78226" lon="0.75146">
        <ele>85</ele>
        <time>2010-11-04T10:10:11Z</time>
      </trkpt>
      <trkpt lat="44.78241" lon="0.75146">
        <ele>84</ele>
        <time>2010-11-04T10:10:25Z</time>
      </trkpt>
      <trkpt lat="44.78242" lon="0.75147">
        <ele>84</ele>
        <time>2010-11-04T10:10:29Z</time>
      </trkpt>
      <trkpt lat="44.78258" lon="0.75153">
        <ele>84</ele>
        <time>2010-11-04T10:10:43Z</time>
      </trkpt>
      <trkpt lat="44.78275" lon="0.75163">
        <ele>85</ele>
        <time>2010-11-04T10:10:58Z</time>
      </trkpt>
      <trkpt lat="44.78277" lon="0.75165">
        <ele>85</ele>
        <time>2010-11-04T10:11:01Z</time>
      </trkpt>
      <trkpt lat="44.78288" lon="0.75178">
        <ele>81</ele>
        <time>2010-11-04T10:11:16Z</time>
      </trkpt>
      <trkpt lat="44.78289" lon="0.75179">
        <ele>81</ele>
        <time>2010-11-04T10:11:17Z</time>
      </trkpt>
      <trkpt lat="44.78298" lon="0.75191">
        <ele>81</ele>
        <time>2010-11-04T10:11:28Z</time>
      </trkpt>
      <trkpt lat="44.78309" lon="0.75208">
        <ele>81</ele>
        <time>2010-11-04T10:11:42Z</time>
      </trkpt>
      <trkpt lat="44.7832" lon="0.75223">
        <ele>80</ele>
        <time>2010-11-04T10:11:54Z</time>
      </trkpt>
      <trkpt lat="44.78329" lon="0.75243">
        <ele>79</ele>
        <time>2010-11-04T10:12:07Z</time>
      </trkpt>
      <trkpt lat="44.78331" lon="0.75252">
        <ele>78</ele>
        <time>2010-11-04T10:12:12Z</time>
      </trkpt>
      <trkpt lat="44.78331" lon="0.75255">
        <ele>78</ele>
        <time>2010-11-04T10:12:14Z</time>
      </trkpt>
      <trkpt lat="44.78332" lon="0.75258">
        <ele>77</ele>
        <time>2010-11-04T10:12:16Z</time>
      </trkpt>
      <trkpt lat="44.78333" lon="0.7526">
        <ele>77</ele>
        <time>2010-11-04T10:12:17Z</time>
      </trkpt>
      <trkpt lat="44.78334" lon="0.75267">
        <ele>79</ele>
        <time>2010-11-04T10:12:21Z</time>
      </trkpt>
      <trkpt lat="44.78336" lon="0.75282">
        <ele>78</ele>
        <time>2010-11-04T10:12:31Z</time>
      </trkpt>
      <trkpt lat="44.78337" lon="0.75286">
        <ele>78</ele>
        <time>2010-11-04T10:12:34Z</time>
      </trkpt>
      <trkpt lat="44.78344" lon="0.75306">
        <ele>77</ele>
        <time>2010-11-04T10:12:48Z</time>
      </trkpt>
      <trkpt lat="44.7835" lon="0.7532">
        <ele>77</ele>
        <time>2010-11-04T10:12:58Z</time>
      </trkpt>
      <trkpt lat="44.78353" lon="0.7533">
        <ele>77</ele>
        <time>2010-11-04T10:13:05Z</time>
      </trkpt>
      <trkpt lat="44.78363" lon="0.75355">
        <ele>75</ele>
        <time>2010-11-04T10:13:18Z</time>
      </trkpt>
      <trkpt lat="44.78365" lon="0.75357">
        <ele>75</ele>
        <time>2010-11-04T10:13:20Z</time>
      </trkpt>
      <trkpt lat="44.78374" lon="0.75379">
        <ele>75</ele>
        <time>2010-11-04T10:13:33Z</time>
      </trkpt>
      <trkpt lat="44.78375" lon="0.75383">
        <ele>75</ele>
        <time>2010-11-04T10:13:36Z</time>
      </trkpt>
      <trkpt lat="44.78384" lon="0.75401">
        <ele>75</ele>
        <time>2010-11-04T10:13:50Z</time>
      </trkpt>
      <trkpt lat="44.78386" lon="0.75405">
        <ele>75</ele>
        <time>2010-11-04T10:13:53Z</time>
      </trkpt>
      <trkpt lat="44.78393" lon="0.75417">
        <ele>74</ele>
        <time>2010-11-04T10:14:04Z</time>
      </trkpt>
      <trkpt lat="44.78396" lon="0.75425">
        <ele>74</ele>
        <time>2010-11-04T10:14:10Z</time>
      </trkpt>
      <trkpt lat="44.78402" lon="0.75434">
        <ele>74</ele>
        <time>2010-11-04T10:14:24Z</time>
      </trkpt>
      <trkpt lat="44.78404" lon="0.75441">
        <ele>74</ele>
        <time>2010-11-04T10:14:39Z</time>
      </trkpt>
      <trkpt lat="44.78413" lon="0.7546">
        <ele>73</ele>
        <time>2010-11-04T10:14:53Z</time>
      </trkpt>
      <trkpt lat="44.78417" lon="0.75467">
        <ele>73</ele>
        <time>2010-11-04T10:14:58Z</time>
      </trkpt>
      <trkpt lat="44.7842" lon="0.75471">
        <ele>73</ele>
        <time>2010-11-04T10:15:02Z</time>
      </trkpt>
      <trkpt lat="44.78422" lon="0.75479">
        <ele>72</ele>
        <time>2010-11-04T10:15:06Z</time>
      </trkpt>
      <trkpt lat="44.78425" lon="0.75482">
        <ele>72</ele>
        <time>2010-11-04T10:15:09Z</time>
      </trkpt>
      <trkpt lat="44.78434" lon="0.7549">
        <ele>72</ele>
        <time>2010-11-04T10:15:18Z</time>
      </trkpt>
      <trkpt lat="44.78446" lon="0.75499">
        <ele>73</ele>
        <time>2010-11-04T10:15:31Z</time>
      </trkpt>
      <trkpt lat="44.7845" lon="0.75502">
        <ele>70</ele>
        <time>2010-11-04T10:15:35Z</time>
      </trkpt>
      <trkpt lat="44.78469" lon="0.75508">
        <ele>71</ele>
        <time>2010-11-04T10:15:49Z</time>
      </trkpt>
      <trkpt lat="44.7848" lon="0.75524">
        <ele>71</ele>
        <time>2010-11-04T10:16:04Z</time>
      </trkpt>
      <trkpt lat="44.7848" lon="0.75526">
        <ele>71</ele>
        <time>2010-11-04T10:16:05Z</time>
      </trkpt>
      <trkpt lat="44.78482" lon="0.75539">
        <ele>70</ele>
        <time>2010-11-04T10:16:13Z</time>
      </trkpt>
      <trkpt lat="44.78486" lon="0.75551">
        <ele>69</ele>
        <time>2010-11-04T10:16:20Z</time>
      </trkpt>
      <trkpt lat="44.78494" lon="0.75563">
        <ele>68</ele>
        <time>2010-11-04T10:16:29Z</time>
      </trkpt>
      <trkpt lat="44.78501" lon="0.7557">
        <ele>68</ele>
        <time>2010-11-04T10:16:36Z</time>
      </trkpt>
      <trkpt lat="44.78504" lon="0.75571">
        <ele>68</ele>
        <time>2010-11-04T10:16:38Z</time>
      </trkpt>
      <trkpt lat="44.78509" lon="0.75571">
        <ele>68</ele>
        <time>2010-11-04T10:16:42Z</time>
      </trkpt>
      <trkpt lat="44.78522" lon="0.7557">
        <ele>69</ele>
        <time>2010-11-04T10:16:52Z</time>
      </trkpt>
      <trkpt lat="44.78534" lon="0.75566">
        <ele>70</ele>
        <time>2010-11-04T10:17:00Z</time>
      </trkpt>
      <trkpt lat="44.78539" lon="0.75565">
        <ele>70</ele>
        <time>2010-11-04T10:17:04Z</time>
      </trkpt>
      <trkpt lat="44.78537" lon="0.75559">
        <ele>70</ele>
        <time>2010-11-04T10:17:12Z</time>
      </trkpt>
      <trkpt lat="44.78534" lon="0.75558">
        <ele>70</ele>
        <time>2010-11-04T10:17:13Z</time>
      </trkpt>
      <trkpt lat="44.78532" lon="0.75557">
        <ele>70</ele>
        <time>2010-11-04T10:17:14Z</time>
      </trkpt>
      <trkpt lat="44.78518" lon="0.75557">
        <ele>70</ele>
        <time>2010-11-04T10:17:26Z</time>
      </trkpt>
      <trkpt lat="44.78515" lon="0.75556">
        <ele>70</ele>
        <time>2010-11-04T10:17:33Z</time>
      </trkpt>
      <trkpt lat="44.78512" lon="0.75557">
        <ele>70</ele>
        <time>2010-11-04T10:17:42Z</time>
      </trkpt>
      <trkpt lat="44.78502" lon="0.75546">
        <ele>71</ele>
        <time>2010-11-04T10:17:54Z</time>
      </trkpt>
      <trkpt lat="44.78497" lon="0.75535">
        <ele>70</ele>
        <time>2010-11-04T10:18:05Z</time>
      </trkpt>
      <trkpt lat="44.78497" lon="0.75527">
        <ele>71</ele>
        <time>2010-11-04T10:18:13Z</time>
      </trkpt>
      <trkpt lat="44.78504" lon="0.75509">
        <ele>74</ele>
        <time>2010-11-04T10:18:25Z</time>
      </trkpt>
      <trkpt lat="44.78516" lon="0.75505">
        <ele>73</ele>
        <time>2010-11-04T10:18:36Z</time>
      </trkpt>
      <trkpt lat="44.78521" lon="0.75499">
        <ele>77</ele>
        <time>2010-11-04T10:18:42Z</time>
      </trkpt>
      <trkpt lat="44.78533" lon="0.75481">
        <ele>78</ele>
        <time>2010-11-04T10:18:56Z</time>
      </trkpt>
      <trkpt lat="44.78539" lon="0.75467">
        <ele>79</ele>
        <time>2010-11-04T10:19:06Z</time>
      </trkpt>
      <trkpt lat="44.7854" lon="0.75449">
        <ele>79</ele>
        <time>2010-11-04T10:19:17Z</time>
      </trkpt>
      <trkpt lat="44.78543" lon="0.7544">
        <ele>80</ele>
        <time>2010-11-04T10:19:24Z</time>
      </trkpt>
      <trkpt lat="44.78549" lon="0.75428">
        <ele>81</ele>
        <time>2010-11-04T10:19:37Z</time>
      </trkpt>
      <trkpt lat="44.78551" lon="0.75421">
        <ele>81</ele>
        <time>2010-11-04T10:19:42Z</time>
      </trkpt>
      <trkpt lat="44.78552" lon="0.75416">
        <ele>84</ele>
        <time>2010-11-04T10:19:46Z</time>
      </trkpt>
      <trkpt lat="44.78552" lon="0.75414">
        <ele>84</ele>
        <time>2010-11-04T10:19:47Z</time>
      </trkpt>
      <trkpt lat="44.78553" lon="0.75392">
        <ele>85</ele>
        <time>2010-11-04T10:20:01Z</time>
      </trkpt>
      <trkpt lat="44.78553" lon="0.75391">
        <ele>85</ele>
        <time>2010-11-04T10:20:02Z</time>
      </trkpt>
      <trkpt lat="44.78553" lon="0.75384">
        <ele>85</ele>
        <time>2010-11-04T10:20:15Z</time>
      </trkpt>
      <trkpt lat="44.78559" lon="0.75364">
        <ele>86</ele>
        <time>2010-11-04T10:20:29Z</time>
      </trkpt>
      <trkpt lat="44.78566" lon="0.75351">
        <ele>87</ele>
        <time>2010-11-04T10:20:39Z</time>
      </trkpt>
      <trkpt lat="44.78568" lon="0.75348">
        <ele>87</ele>
        <time>2010-11-04T10:20:42Z</time>
      </trkpt>
      <trkpt lat="44.7858" lon="0.75329">
        <ele>89</ele>
        <time>2010-11-04T10:20:58Z</time>
      </trkpt>
      <trkpt lat="44.7858" lon="0.75319">
        <ele>89</ele>
        <time>2010-11-04T10:21:07Z</time>
      </trkpt>
      <trkpt lat="44.78576" lon="0.75312">
        <ele>89</ele>
        <time>2010-11-04T10:21:14Z</time>
      </trkpt>
      <trkpt lat="44.78563" lon="0.75294">
        <ele>88</ele>
        <time>2010-11-04T10:21:31Z</time>
      </trkpt>
      <trkpt lat="44.78562" lon="0.75293">
        <ele>88</ele>
        <time>2010-11-04T10:21:32Z</time>
      </trkpt>
      <trkpt lat="44.78559" lon="0.7529">
        <ele>88</ele>
        <time>2010-11-04T10:21:35Z</time>
      </trkpt>
      <trkpt lat="44.78553" lon="0.7528">
        <ele>88</ele>
        <time>2010-11-04T10:21:43Z</time>
      </trkpt>
      <trkpt lat="44.78548" lon="0.75274">
        <ele>88</ele>
        <time>2010-11-04T10:21:48Z</time>
      </trkpt>
      <trkpt lat="44.78545" lon="0.75266">
        <ele>87</ele>
        <time>2010-11-04T10:21:53Z</time>
      </trkpt>
      <trkpt lat="44.78543" lon="0.75247">
        <ele>88</ele>
        <time>2010-11-04T10:22:05Z</time>
      </trkpt>
      <trkpt lat="44.78541" lon="0.75244">
        <ele>88</ele>
        <time>2010-11-04T10:22:07Z</time>
      </trkpt>
      <trkpt lat="44.78541" lon="0.7524">
        <ele>88</ele>
        <time>2010-11-04T10:22:11Z</time>
      </trkpt>
      <trkpt lat="44.7854" lon="0.75239">
        <ele>88</ele>
        <time>2010-11-04T10:22:12Z</time>
      </trkpt>
      <trkpt lat="44.78534" lon="0.75227">
        <ele>87</ele>
        <time>2010-11-04T10:22:21Z</time>
      </trkpt>
      <trkpt lat="44.78526" lon="0.75211">
        <ele>87</ele>
        <time>2010-11-04T10:22:34Z</time>
      </trkpt>
      <trkpt lat="44.78522" lon="0.75194">
        <ele>87</ele>
        <time>2010-11-04T10:22:46Z</time>
      </trkpt>
      <trkpt lat="44.7852" lon="0.75189">
        <ele>86</ele>
        <time>2010-11-04T10:23:05Z</time>
      </trkpt>
      <trkpt lat="44.7852" lon="0.75172">
        <ele>86</ele>
        <time>2010-11-04T10:23:42Z</time>
      </trkpt>
      <trkpt lat="44.78518" lon="0.75162">
        <ele>87</ele>
        <time>2010-11-04T10:23:52Z</time>
      </trkpt>
      <trkpt lat="44.7851" lon="0.75139">
        <ele>88</ele>
        <time>2010-11-04T10:24:04Z</time>
      </trkpt>
      <trkpt lat="44.78509" lon="0.75122">
        <ele>89</ele>
        <time>2010-11-04T10:24:16Z</time>
      </trkpt>
      <trkpt lat="44.78506" lon="0.75109">
        <ele>89</ele>
        <time>2010-11-04T10:24:21Z</time>
      </trkpt>
      <trkpt lat="44.78507" lon="0.75103">
        <ele>88</ele>
        <time>2010-11-04T10:24:24Z</time>
      </trkpt>
      <trkpt lat="44.78507" lon="0.75092">
        <ele>88</ele>
        <time>2010-11-04T10:24:30Z</time>
      </trkpt>
      <trkpt lat="44.78508" lon="0.75075">
        <ele>90</ele>
        <time>2010-11-04T10:24:42Z</time>
      </trkpt>
      <trkpt lat="44.78508" lon="0.75074">
        <ele>90</ele>
        <time>2010-11-04T10:25:17Z</time>
      </trkpt>
      <trkpt lat="44.78508" lon="0.75074">
        <ele>90</ele>
        <time>2010-11-04T10:25:19Z</time>
      </trkpt>
      <trkpt lat="44.78508" lon="0.75074">
        <ele>90</ele>
        <time>2010-11-04T10:26:20Z</time>
      </trkpt>
      <trkpt lat="44.78508" lon="0.75074">
        <ele>90</ele>
        <time>2010-11-04T10:26:44Z</time>
      </trkpt>
      <trkpt lat="44.78508" lon="0.75073">
        <ele>90</ele>
        <time>2010-11-04T10:27:06Z</time>
      </trkpt>
      <trkpt lat="44.78508" lon="0.75073">
        <ele>90</ele>
        <time>2010-11-04T10:28:15Z</time>
      </trkpt>
      <trkpt lat="44.78508" lon="0.75073">
        <ele>90</ele>
        <time>2010-11-04T10:31:13Z</time>
      </trkpt>
      <trkpt lat="44.78508" lon="0.75072">
        <ele>91</ele>
        <time>2010-11-04T10:34:53Z</time>
      </trkpt>
      <trkpt lat="44.78508" lon="0.75072">
        <ele>91</ele>
        <time>2010-11-04T10:34:54Z</time>
      </trkpt>
      <trkpt lat="44.78508" lon="0.75072">
        <ele>91</ele>
        <time>2010-11-04T10:34:57Z</time>
      </trkpt>
      <trkpt lat="44.78508" lon="0.75072">
        <ele>91</ele>
        <time>2010-11-04T10:34:58Z</time>
      </trkpt>
      <trkpt lat="44.78508" lon="0.75071">
        <ele>91</ele>
        <time>2010-11-04T10:35:22Z</time>
      </trkpt>
      <trkpt lat="44.78508" lon="0.75071">
        <ele>91</ele>
        <time>2010-11-04T10:35:24Z</time>
      </trkpt>
      <trkpt lat="44.78507" lon="0.75069">
        <ele>91</ele>
        <time>2010-11-04T10:35:55Z</time>
      </trkpt>
      <trkpt lat="44.785" lon="0.75049">
        <ele>88</ele>
        <time>2010-11-04T10:36:07Z</time>
      </trkpt>
      <trkpt lat="44.78499" lon="0.75045">
        <ele>88</ele>
        <time>2010-11-04T10:36:09Z</time>
      </trkpt>
      <trkpt lat="44.78497" lon="0.75043">
        <ele>88</ele>
        <time>2010-11-04T10:36:11Z</time>
      </trkpt>
      <trkpt lat="44.78496" lon="0.75037">
        <ele>89</ele>
        <time>2010-11-04T10:36:14Z</time>
      </trkpt>
      <trkpt lat="44.78496" lon="0.75022">
        <ele>90</ele>
        <time>2010-11-04T10:36:25Z</time>
      </trkpt>
      <trkpt lat="44.78496" lon="0.7501">
        <ele>91</ele>
        <time>2010-11-04T10:36:33Z</time>
      </trkpt>
      <trkpt lat="44.78499" lon="0.74986">
        <ele>92</ele>
        <time>2010-11-04T10:36:47Z</time>
      </trkpt>
      <trkpt lat="44.78506" lon="0.74974">
        <ele>99</ele>
        <time>2010-11-04T10:36:58Z</time>
      </trkpt>
      <trkpt lat="44.78512" lon="0.74976">
        <ele>100</ele>
        <time>2010-11-04T10:37:07Z</time>
      </trkpt>
      <trkpt lat="44.78514" lon="0.74982">
        <ele>99</ele>
        <time>2010-11-04T10:37:12Z</time>
      </trkpt>
      <trkpt lat="44.78515" lon="0.74988">
        <ele>99</ele>
        <time>2010-11-04T10:37:15Z</time>
      </trkpt>
      <trkpt lat="44.78517" lon="0.74992">
        <ele>99</ele>
        <time>2010-11-04T10:37:18Z</time>
      </trkpt>
      <trkpt lat="44.78522" lon="0.74999">
        <ele>99</ele>
        <time>2010-11-04T10:37:24Z</time>
      </trkpt>
      <trkpt lat="44.78524" lon="0.75001">
        <ele>96</ele>
        <time>2010-11-04T10:37:27Z</time>
      </trkpt>
      <trkpt lat="44.78525" lon="0.75004">
        <ele>96</ele>
        <time>2010-11-04T10:37:29Z</time>
      </trkpt>
      <trkpt lat="44.78534" lon="0.75015">
        <ele>97</ele>
        <time>2010-11-04T10:37:41Z</time>
      </trkpt>
      <trkpt lat="44.78544" lon="0.75027">
        <ele>98</ele>
        <time>2010-11-04T10:37:54Z</time>
      </trkpt>
      <trkpt lat="44.78558" lon="0.75038">
        <ele>99</ele>
        <time>2010-11-04T10:38:08Z</time>
      </trkpt>
      <trkpt lat="44.78562" lon="0.75041">
        <ele>99</ele>
        <time>2010-11-04T10:38:16Z</time>
      </trkpt>
      <trkpt lat="44.78566" lon="0.75043">
        <ele>99</ele>
        <time>2010-11-04T10:38:20Z</time>
      </trkpt>
      <trkpt lat="44.78573" lon="0.75047">
        <ele>99</ele>
        <time>2010-11-04T10:38:29Z</time>
      </trkpt>
      <trkpt lat="44.78588" lon="0.75052">
        <ele>106</ele>
        <time>2010-11-04T10:38:42Z</time>
      </trkpt>
      <trkpt lat="44.78597" lon="0.75059">
        <ele>106</ele>
        <time>2010-11-04T10:38:54Z</time>
      </trkpt>
      <trkpt lat="44.78606" lon="0.75064">
        <ele>106</ele>
        <time>2010-11-04T10:39:04Z</time>
      </trkpt>
      <trkpt lat="44.78612" lon="0.75074">
        <ele>106</ele>
        <time>2010-11-04T10:39:14Z</time>
      </trkpt>
      <trkpt lat="44.78622" lon="0.7508">
        <ele>106</ele>
        <time>2010-11-04T10:39:26Z</time>
      </trkpt>
      <trkpt lat="44.78627" lon="0.75077">
        <ele>107</ele>
        <time>2010-11-04T10:39:32Z</time>
      </trkpt>
      <trkpt lat="44.78634" lon="0.75074">
        <ele>107</ele>
        <time>2010-11-04T10:39:37Z</time>
      </trkpt>
      <trkpt lat="44.78636" lon="0.75073">
        <ele>107</ele>
        <time>2010-11-04T10:39:39Z</time>
      </trkpt>
      <trkpt lat="44.78638" lon="0.75072">
        <ele>107</ele>
        <time>2010-11-04T10:39:41Z</time>
      </trkpt>
      <trkpt lat="44.78648" lon="0.75066">
        <ele>107</ele>
        <time>2010-11-04T10:39:50Z</time>
      </trkpt>
      <trkpt lat="44.78662" lon="0.75059">
        <ele>108</ele>
        <time>2010-11-04T10:40:04Z</time>
      </trkpt>
      <trkpt lat="44.78675" lon="0.75048">
        <ele>112</ele>
        <time>2010-11-04T10:40:18Z</time>
      </trkpt>
      <trkpt lat="44.7869" lon="0.75035">
        <ele>113</ele>
        <time>2010-11-04T10:40:34Z</time>
      </trkpt>
      <trkpt lat="44.78705" lon="0.75026">
        <ele>113</ele>
        <time>2010-11-04T10:40:49Z</time>
      </trkpt>
      <trkpt lat="44.7872" lon="0.75023">
        <ele>114</ele>
        <time>2010-11-04T10:41:03Z</time>
      </trkpt>
      <trkpt lat="44.78737" lon="0.7502">
        <ele>115</ele>
        <time>2010-11-04T10:41:19Z</time>
      </trkpt>
      <trkpt lat="44.78749" lon="0.75017">
        <ele>115</ele>
        <time>2010-11-04T10:41:30Z</time>
      </trkpt>
      <trkpt lat="44.78763" lon="0.75016">
        <ele>116</ele>
        <time>2010-11-04T10:41:44Z</time>
      </trkpt>
      <trkpt lat="44.78773" lon="0.75012">
        <ele>116</ele>
        <time>2010-11-04T10:41:54Z</time>
      </trkpt>
      <trkpt lat="44.78791" lon="0.75006">
        <ele>115</ele>
        <time>2010-11-04T10:42:08Z</time>
      </trkpt>
      <trkpt lat="44.78808" lon="0.74999">
        <ele>121</ele>
        <time>2010-11-04T10:42:24Z</time>
      </trkpt>
      <trkpt lat="44.78821" lon="0.74986">
        <ele>120</ele>
        <time>2010-11-04T10:42:38Z</time>
      </trkpt>
      <trkpt lat="44.78834" lon="0.74976">
        <ele>121</ele>
        <time>2010-11-04T10:42:51Z</time>
      </trkpt>
      <trkpt lat="44.7885" lon="0.74963">
        <ele>122</ele>
        <time>2010-11-04T10:43:06Z</time>
      </trkpt>
      <trkpt lat="44.7886" lon="0.74949">
        <ele>123</ele>
        <time>2010-11-04T10:43:18Z</time>
      </trkpt>
      <trkpt lat="44.78861" lon="0.74949">
        <ele>123</ele>
        <time>2010-11-04T10:43:19Z</time>
      </trkpt>
      <trkpt lat="44.78862" lon="0.74948">
        <ele>123</ele>
        <time>2010-11-04T10:43:20Z</time>
      </trkpt>
      <trkpt lat="44.78864" lon="0.74945">
        <ele>123</ele>
        <time>2010-11-04T10:43:23Z</time>
      </trkpt>
      <trkpt lat="44.78866" lon="0.74945">
        <ele>123</ele>
        <time>2010-11-04T10:43:24Z</time>
      </trkpt>
      <trkpt lat="44.78881" lon="0.74928">
        <ele>123</ele>
        <time>2010-11-04T10:43:40Z</time>
      </trkpt>
      <trkpt lat="44.78895" lon="0.74916">
        <ele>128</ele>
        <time>2010-11-04T10:43:55Z</time>
      </trkpt>
      <trkpt lat="44.78905" lon="0.74908">
        <ele>127</ele>
        <time>2010-11-04T10:44:09Z</time>
      </trkpt>
      <trkpt lat="44.78911" lon="0.74902">
        <ele>127</ele>
        <time>2010-11-04T10:44:17Z</time>
      </trkpt>
      <trkpt lat="44.78916" lon="0.74899">
        <ele>127</ele>
        <time>2010-11-04T10:44:36Z</time>
      </trkpt>
      <trkpt lat="44.78929" lon="0.74895">
        <ele>126</ele>
        <time>2010-11-04T10:44:48Z</time>
      </trkpt>
      <trkpt lat="44.78939" lon="0.7489">
        <ele>127</ele>
        <time>2010-11-04T10:44:57Z</time>
      </trkpt>
      <trkpt lat="44.78943" lon="0.74888">
        <ele>127</ele>
        <time>2010-11-04T10:45:16Z</time>
      </trkpt>
      <trkpt lat="44.78958" lon="0.74876">
        <ele>127</ele>
        <time>2010-11-04T10:45:33Z</time>
      </trkpt>
      <trkpt lat="44.78973" lon="0.74865">
        <ele>128</ele>
        <time>2010-11-04T10:45:48Z</time>
      </trkpt>
      <trkpt lat="44.78987" lon="0.74855">
        <ele>128</ele>
        <time>2010-11-04T10:46:02Z</time>
      </trkpt>
      <trkpt lat="44.79006" lon="0.74845">
        <ele>127</ele>
        <time>2010-11-04T10:46:18Z</time>
      </trkpt>
      <trkpt lat="44.7901" lon="0.74842">
        <ele>127</ele>
        <time>2010-11-04T10:46:22Z</time>
      </trkpt>
      <trkpt lat="44.79012" lon="0.7484">
        <ele>127</ele>
        <time>2010-11-04T10:46:24Z</time>
      </trkpt>
      <trkpt lat="44.79025" lon="0.74828">
        <ele>125</ele>
        <time>2010-11-04T10:46:38Z</time>
      </trkpt>
      <trkpt lat="44.79034" lon="0.74823">
        <ele>124</ele>
        <time>2010-11-04T10:46:53Z</time>
      </trkpt>
      <trkpt lat="44.79047" lon="0.74812">
        <ele>123</ele>
        <time>2010-11-04T10:47:08Z</time>
      </trkpt>
      <trkpt lat="44.79062" lon="0.74796">
        <ele>123</ele>
        <time>2010-11-04T10:47:24Z</time>
      </trkpt>
      <trkpt lat="44.79076" lon="0.74791">
        <ele>122</ele>
        <time>2010-11-04T10:47:46Z</time>
      </trkpt>
      <trkpt lat="44.79077" lon="0.7479">
        <ele>122</ele>
        <time>2010-11-04T10:47:51Z</time>
      </trkpt>
      <trkpt lat="44.79095" lon="0.74784">
        <ele>117</ele>
        <time>2010-11-04T10:48:04Z</time>
      </trkpt>
      <trkpt lat="44.79102" lon="0.74779">
        <ele>116</ele>
        <time>2010-11-04T10:48:07Z</time>
      </trkpt>
      <trkpt lat="44.79104" lon="0.74778">
        <ele>116</ele>
        <time>2010-11-04T10:48:08Z</time>
      </trkpt>
      <trkpt lat="44.79107" lon="0.74775">
        <ele>116</ele>
        <time>2010-11-04T10:48:10Z</time>
      </trkpt>
      <trkpt lat="44.7912" lon="0.74756">
        <ele>115</ele>
        <time>2010-11-04T10:48:25Z</time>
      </trkpt>
      <trkpt lat="44.79121" lon="0.74753">
        <ele>115</ele>
        <time>2010-11-04T10:48:28Z</time>
      </trkpt>
      <trkpt lat="44.79127" lon="0.74742">
        <ele>111</ele>
        <time>2010-11-04T10:48:39Z</time>
      </trkpt>
      <trkpt lat="44.79128" lon="0.7474">
        <ele>111</ele>
        <time>2010-11-04T10:48:41Z</time>
      </trkpt>
      <trkpt lat="44.7913" lon="0.74736">
        <ele>111</ele>
        <time>2010-11-04T10:48:44Z</time>
      </trkpt>
      <trkpt lat="44.79135" lon="0.74723">
        <ele>110</ele>
        <time>2010-11-04T10:48:55Z</time>
      </trkpt>
      <trkpt lat="44.79141" lon="0.74711">
        <ele>110</ele>
        <time>2010-11-04T10:49:02Z</time>
      </trkpt>
      <trkpt lat="44.79147" lon="0.747">
        <ele>109</ele>
        <time>2010-11-04T10:49:13Z</time>
      </trkpt>
      <trkpt lat="44.79155" lon="0.74683">
        <ele>108</ele>
        <time>2010-11-04T10:49:26Z</time>
      </trkpt>
      <trkpt lat="44.79165" lon="0.74665">
        <ele>105</ele>
        <time>2010-11-04T10:49:39Z</time>
      </trkpt>
      <trkpt lat="44.79172" lon="0.74653">
        <ele>105</ele>
        <time>2010-11-04T10:49:49Z</time>
      </trkpt>
      <trkpt lat="44.79184" lon="0.74638">
        <ele>105</ele>
        <time>2010-11-04T10:50:01Z</time>
      </trkpt>
      <trkpt lat="44.79194" lon="0.74625">
        <ele>105</ele>
        <time>2010-11-04T10:50:10Z</time>
      </trkpt>
      <trkpt lat="44.79204" lon="0.74619">
        <ele>105</ele>
        <time>2010-11-04T10:50:21Z</time>
      </trkpt>
      <trkpt lat="44.79203" lon="0.74619">
        <ele>105</ele>
        <time>2010-11-04T10:50:30Z</time>
      </trkpt>
      <trkpt lat="44.79217" lon="0.74626">
        <ele>104</ele>
        <time>2010-11-04T10:50:43Z</time>
      </trkpt>
      <trkpt lat="44.79225" lon="0.74625">
        <ele>104</ele>
        <time>2010-11-04T10:50:59Z</time>
      </trkpt>
      <trkpt lat="44.79225" lon="0.74625">
        <ele>104</ele>
        <time>2010-11-04T10:52:19Z</time>
      </trkpt>
      <trkpt lat="44.79225" lon="0.74625">
        <ele>104</ele>
        <time>2010-11-04T10:52:20Z</time>
      </trkpt>
      <trkpt lat="44.7923" lon="0.74629">
        <ele>103</ele>
        <time>2010-11-04T10:52:26Z</time>
      </trkpt>
      <trkpt lat="44.79232" lon="0.74631">
        <ele>103</ele>
        <time>2010-11-04T10:52:28Z</time>
      </trkpt>
      <trkpt lat="44.7925" lon="0.7464">
        <ele>102</ele>
        <time>2010-11-04T10:52:42Z</time>
      </trkpt>
      <trkpt lat="44.79271" lon="0.74647">
        <ele>101</ele>
        <time>2010-11-04T10:52:58Z</time>
      </trkpt>
      <trkpt lat="44.79285" lon="0.74653">
        <ele>102</ele>
        <time>2010-11-04T10:53:11Z</time>
      </trkpt>
      <trkpt lat="44.79292" lon="0.74656">
        <ele>102</ele>
        <time>2010-11-04T10:53:17Z</time>
      </trkpt>
      <trkpt lat="44.79307" lon="0.74667">
        <ele>99</ele>
        <time>2010-11-04T10:53:31Z</time>
      </trkpt>
      <trkpt lat="44.79308" lon="0.74667">
        <ele>100</ele>
        <time>2010-11-04T10:53:32Z</time>
      </trkpt>
      <trkpt lat="44.7931" lon="0.74667">
        <ele>100</ele>
        <time>2010-11-04T10:53:33Z</time>
      </trkpt>
      <trkpt lat="44.79324" lon="0.74675">
        <ele>100</ele>
        <time>2010-11-04T10:53:48Z</time>
      </trkpt>
      <trkpt lat="44.7933" lon="0.74676">
        <ele>100</ele>
        <time>2010-11-04T10:53:52Z</time>
      </trkpt>
      <trkpt lat="44.79338" lon="0.7468">
        <ele>99</ele>
        <time>2010-11-04T10:54:02Z</time>
      </trkpt>
      <trkpt lat="44.79344" lon="0.74683">
        <ele>99</ele>
        <time>2010-11-04T10:54:13Z</time>
      </trkpt>
      <trkpt lat="44.79348" lon="0.74687">
        <ele>98</ele>
        <time>2010-11-04T10:54:21Z</time>
      </trkpt>
      <trkpt lat="44.79349" lon="0.74688">
        <ele>98</ele>
        <time>2010-11-04T10:54:23Z</time>
      </trkpt>
      <trkpt lat="44.79363" lon="0.74696">
        <ele>97</ele>
        <time>2010-11-04T10:54:39Z</time>
      </trkpt>
      <trkpt lat="44.79375" lon="0.74704">
        <ele>97</ele>
        <time>2010-11-04T10:54:51Z</time>
      </trkpt>
      <trkpt lat="44.79386" lon="0.74705">
        <ele>96</ele>
        <time>2010-11-04T10:55:01Z</time>
      </trkpt>
      <trkpt lat="44.79398" lon="0.74717">
        <ele>95</ele>
        <time>2010-11-04T10:55:14Z</time>
      </trkpt>
      <trkpt lat="44.794" lon="0.74718">
        <ele>95</ele>
        <time>2010-11-04T10:55:56Z</time>
      </trkpt>
      <trkpt lat="44.794" lon="0.74718">
        <ele>95</ele>
        <time>2010-11-04T10:56:00Z</time>
      </trkpt>
      <trkpt lat="44.794" lon="0.74719">
        <ele>95</ele>
        <time>2010-11-04T10:56:36Z</time>
      </trkpt>
      <trkpt lat="44.79403" lon="0.74719">
        <ele>95</ele>
        <time>2010-11-04T10:57:50Z</time>
      </trkpt>
      <trkpt lat="44.79415" lon="0.74716">
        <ele>95</ele>
        <time>2010-11-04T10:58:03Z</time>
      </trkpt>
      <trkpt lat="44.79427" lon="0.74711">
        <ele>94</ele>
        <time>2010-11-04T10:58:14Z</time>
      </trkpt>
      <trkpt lat="44.79442" lon="0.74705">
        <ele>94</ele>
        <time>2010-11-04T10:58:28Z</time>
      </trkpt>
      <trkpt lat="44.79453" lon="0.74703">
        <ele>94</ele>
        <time>2010-11-04T10:58:40Z</time>
      </trkpt>
      <trkpt lat="44.79466" lon="0.74703">
        <ele>94</ele>
        <time>2010-11-04T10:58:52Z</time>
      </trkpt>
      <trkpt lat="44.79467" lon="0.74698">
        <ele>94</ele>
        <time>2010-11-04T10:59:02Z</time>
      </trkpt>
      <trkpt lat="44.79465" lon="0.74695">
        <ele>94</ele>
        <time>2010-11-04T10:59:05Z</time>
      </trkpt>
      <trkpt lat="44.7946" lon="0.74691">
        <ele>95</ele>
        <time>2010-11-04T10:59:11Z</time>
      </trkpt>
      <trkpt lat="44.79455" lon="0.74687">
        <ele>95</ele>
        <time>2010-11-04T10:59:15Z</time>
      </trkpt>
      <trkpt lat="44.79445" lon="0.74677">
        <ele>96</ele>
        <time>2010-11-04T10:59:26Z</time>
      </trkpt>
      <trkpt lat="44.79435" lon="0.74667">
        <ele>97</ele>
        <time>2010-11-04T10:59:40Z</time>
      </trkpt>
      <trkpt lat="44.79426" lon="0.74661">
        <ele>100</ele>
        <time>2010-11-04T10:59:52Z</time>
      </trkpt>
      <trkpt lat="44.79416" lon="0.74648">
        <ele>102</ele>
        <time>2010-11-04T11:00:04Z</time>
      </trkpt>
      <trkpt lat="44.79402" lon="0.74642">
        <ele>103</ele>
        <time>2010-11-04T11:00:16Z</time>
      </trkpt>
      <trkpt lat="44.79403" lon="0.74636">
        <ele>103</ele>
        <time>2010-11-04T11:00:29Z</time>
      </trkpt>
      <trkpt lat="44.79405" lon="0.74624">
        <ele>104</ele>
        <time>2010-11-04T11:00:37Z</time>
      </trkpt>
      <trkpt lat="44.79402" lon="0.74606">
        <ele>104</ele>
        <time>2010-11-04T11:00:50Z</time>
      </trkpt>
      <trkpt lat="44.79401" lon="0.74605">
        <ele>104</ele>
        <time>2010-11-04T11:00:51Z</time>
      </trkpt>
      <trkpt lat="44.79395" lon="0.74601">
        <ele>105</ele>
        <time>2010-11-04T11:01:03Z</time>
      </trkpt>
      <trkpt lat="44.79392" lon="0.74598">
        <ele>105</ele>
        <time>2010-11-04T11:01:32Z</time>
      </trkpt>
      <trkpt lat="44.79384" lon="0.74597">
        <ele>105</ele>
        <time>2010-11-04T11:01:45Z</time>
      </trkpt>
      <trkpt lat="44.7938" lon="0.74597">
        <ele>105</ele>
        <time>2010-11-04T11:02:00Z</time>
      </trkpt>
      <trkpt lat="44.79374" lon="0.74598">
        <ele>105</ele>
        <time>2010-11-04T11:02:08Z</time>
      </trkpt>
      <trkpt lat="44.79374" lon="0.74599">
        <ele>105</ele>
        <time>2010-11-04T11:02:11Z</time>
      </trkpt>
      <trkpt lat="44.79374" lon="0.74599">
        <ele>105</ele>
        <time>2010-11-04T11:02:13Z</time>
      </trkpt>
      <trkpt lat="44.79373" lon="0.74599">
        <ele>105</ele>
        <time>2010-11-04T11:02:30Z</time>
      </trkpt>
      <trkpt lat="44.7937" lon="0.74598">
        <ele>105</ele>
        <time>2010-11-04T11:02:54Z</time>
      </trkpt>
      <trkpt lat="44.79358" lon="0.74591">
        <ele>105</ele>
        <time>2010-11-04T11:03:04Z</time>
      </trkpt>
      <trkpt lat="44.7935" lon="0.74589">
        <ele>105</ele>
        <time>2010-11-04T11:03:11Z</time>
      </trkpt>
      <trkpt lat="44.79335" lon="0.74584">
        <ele>107</ele>
        <time>2010-11-04T11:03:26Z</time>
      </trkpt>
      <trkpt lat="44.79331" lon="0.74578">
        <ele>108</ele>
        <time>2010-11-04T11:03:32Z</time>
      </trkpt>
      <trkpt lat="44.79322" lon="0.74567">
        <ele>110</ele>
        <time>2010-11-04T11:03:50Z</time>
      </trkpt>
      <trkpt lat="44.79333" lon="0.74541">
        <ele>112</ele>
        <time>2010-11-04T11:04:07Z</time>
      </trkpt>
      <trkpt lat="44.79341" lon="0.7452">
        <ele>110</ele>
        <time>2010-11-04T11:04:22Z</time>
      </trkpt>
      <trkpt lat="44.7935" lon="0.74496">
        <ele>112</ele>
        <time>2010-11-04T11:04:40Z</time>
      </trkpt>
      <trkpt lat="44.79356" lon="0.74483">
        <ele>111</ele>
        <time>2010-11-04T11:04:51Z</time>
      </trkpt>
      <trkpt lat="44.79359" lon="0.74476">
        <ele>111</ele>
        <time>2010-11-04T11:05:03Z</time>
      </trkpt>
      <trkpt lat="44.79362" lon="0.7447">
        <ele>111</ele>
        <time>2010-11-04T11:05:12Z</time>
      </trkpt>
      <trkpt lat="44.79371" lon="0.74447">
        <ele>111</ele>
        <time>2010-11-04T11:05:23Z</time>
      </trkpt>
      <trkpt lat="44.7938" lon="0.74425">
        <ele>110</ele>
        <time>2010-11-04T11:05:36Z</time>
      </trkpt>
      <trkpt lat="44.79383" lon="0.74417">
        <ele>110</ele>
        <time>2010-11-04T11:05:40Z</time>
      </trkpt>
      <trkpt lat="44.79396" lon="0.74396">
        <ele>112</ele>
        <time>2010-11-04T11:05:52Z</time>
      </trkpt>
      <trkpt lat="44.79397" lon="0.74394">
        <ele>112</ele>
        <time>2010-11-04T11:05:54Z</time>
      </trkpt>
      <trkpt lat="44.794" lon="0.74385">
        <ele>112</ele>
        <time>2010-11-04T11:06:05Z</time>
      </trkpt>
      <trkpt lat="44.79404" lon="0.74378">
        <ele>113</ele>
        <time>2010-11-04T11:06:13Z</time>
      </trkpt>
      <trkpt lat="44.79408" lon="0.74373">
        <ele>113</ele>
        <time>2010-11-04T11:06:19Z</time>
      </trkpt>
      <trkpt lat="44.79411" lon="0.74368">
        <ele>113</ele>
        <time>2010-11-04T11:06:22Z</time>
      </trkpt>
      <trkpt lat="44.79413" lon="0.74362">
        <ele>113</ele>
        <time>2010-11-04T11:06:26Z</time>
      </trkpt>
      <trkpt lat="44.79418" lon="0.74358">
        <ele>101</ele>
        <time>2010-11-04T11:06:31Z</time>
      </trkpt>
      <trkpt lat="44.79429" lon="0.74343">
        <ele>103</ele>
        <time>2010-11-04T11:06:43Z</time>
      </trkpt>
      <trkpt lat="44.7943" lon="0.74341">
        <ele>103</ele>
        <time>2010-11-04T11:06:54Z</time>
      </trkpt>
      <trkpt lat="44.79435" lon="0.74333">
        <ele>103</ele>
        <time>2010-11-04T11:07:03Z</time>
      </trkpt>
      <trkpt lat="44.79441" lon="0.74321">
        <ele>101</ele>
        <time>2010-11-04T11:07:14Z</time>
      </trkpt>
      <trkpt lat="44.79446" lon="0.7431">
        <ele>100</ele>
        <time>2010-11-04T11:07:26Z</time>
      </trkpt>
      <trkpt lat="44.79455" lon="0.7429">
        <ele>98</ele>
        <time>2010-11-04T11:07:39Z</time>
      </trkpt>
      <trkpt lat="44.79465" lon="0.74271">
        <ele>96</ele>
        <time>2010-11-04T11:07:51Z</time>
      </trkpt>
      <trkpt lat="44.79471" lon="0.74257">
        <ele>95</ele>
        <time>2010-11-04T11:08:02Z</time>
      </trkpt>
      <trkpt lat="44.79473" lon="0.74248">
        <ele>94</ele>
        <time>2010-11-04T11:08:08Z</time>
      </trkpt>
      <trkpt lat="44.79476" lon="0.74231">
        <ele>94</ele>
        <time>2010-11-04T11:08:19Z</time>
      </trkpt>
      <trkpt lat="44.79475" lon="0.74215">
        <ele>95</ele>
        <time>2010-11-04T11:08:31Z</time>
      </trkpt>
      <trkpt lat="44.7948" lon="0.74193">
        <ele>93</ele>
        <time>2010-11-04T11:09:09Z</time>
      </trkpt>
      <trkpt lat="44.79481" lon="0.74174">
        <ele>91</ele>
        <time>2010-11-04T11:09:23Z</time>
      </trkpt>
      <trkpt lat="44.79485" lon="0.74155">
        <ele>89</ele>
        <time>2010-11-04T11:09:34Z</time>
      </trkpt>
      <trkpt lat="44.79487" lon="0.74141">
        <ele>91</ele>
        <time>2010-11-04T11:09:44Z</time>
      </trkpt>
      <trkpt lat="44.79487" lon="0.74138">
        <ele>91</ele>
        <time>2010-11-04T11:09:46Z</time>
      </trkpt>
      <trkpt lat="44.79495" lon="0.74104">
        <ele>88</ele>
        <time>2010-11-04T11:10:00Z</time>
      </trkpt>
      <trkpt lat="44.79496" lon="0.74096">
        <ele>86</ele>
        <time>2010-11-04T11:10:03Z</time>
      </trkpt>
      <trkpt lat="44.79502" lon="0.74071">
        <ele>75</ele>
        <time>2010-11-04T11:10:14Z</time>
      </trkpt>
      <trkpt lat="44.79505" lon="0.74054">
        <ele>72</ele>
        <time>2010-11-04T11:10:23Z</time>
      </trkpt>
      <trkpt lat="44.79507" lon="0.74047">
        <ele>71</ele>
        <time>2010-11-04T11:10:27Z</time>
      </trkpt>
      <trkpt lat="44.79511" lon="0.74026">
        <ele>71</ele>
        <time>2010-11-04T11:10:42Z</time>
      </trkpt>
      <trkpt lat="44.79512" lon="0.74019">
        <ele>72</ele>
        <time>2010-11-04T11:10:47Z</time>
      </trkpt>
      <trkpt lat="44.79511" lon="0.74015">
        <ele>72</ele>
        <time>2010-11-04T11:10:49Z</time>
      </trkpt>
      <trkpt lat="44.79511" lon="0.7401">
        <ele>73</ele>
        <time>2010-11-04T11:10:55Z</time>
      </trkpt>
      <trkpt lat="44.79513" lon="0.73998">
        <ele>74</ele>
        <time>2010-11-04T11:11:04Z</time>
      </trkpt>
      <trkpt lat="44.79517" lon="0.73988">
        <ele>72</ele>
        <time>2010-11-04T11:11:10Z</time>
      </trkpt>
      <trkpt lat="44.79522" lon="0.73966">
        <ele>71</ele>
        <time>2010-11-04T11:11:24Z</time>
      </trkpt>
      <trkpt lat="44.79522" lon="0.7396">
        <ele>72</ele>
        <time>2010-11-04T11:11:46Z</time>
      </trkpt>
      <trkpt lat="44.79523" lon="0.73957">
        <ele>72</ele>
        <time>2010-11-04T11:11:57Z</time>
      </trkpt>
      <trkpt lat="44.79524" lon="0.73951">
        <ele>72</ele>
        <time>2010-11-04T11:12:00Z</time>
      </trkpt>
      <trkpt lat="44.79528" lon="0.73926">
        <ele>73</ele>
        <time>2010-11-04T11:12:12Z</time>
      </trkpt>
      <trkpt lat="44.79528" lon="0.73906">
        <ele>78</ele>
        <time>2010-11-04T11:12:23Z</time>
      </trkpt>
      <trkpt lat="44.79529" lon="0.73889">
        <ele>79</ele>
        <time>2010-11-04T11:12:33Z</time>
      </trkpt>
      <trkpt lat="44.79528" lon="0.73885">
        <ele>79</ele>
        <time>2010-11-04T11:12:37Z</time>
      </trkpt>
      <trkpt lat="44.79528" lon="0.73873">
        <ele>80</ele>
        <time>2010-11-04T11:12:43Z</time>
      </trkpt>
      <trkpt lat="44.79534" lon="0.73854">
        <ele>80</ele>
        <time>2010-11-04T11:12:52Z</time>
      </trkpt>
      <trkpt lat="44.79538" lon="0.73835">
        <ele>80</ele>
        <time>2010-11-04T11:13:02Z</time>
      </trkpt>
      <trkpt lat="44.7954" lon="0.73818">
        <ele>88</ele>
        <time>2010-11-04T11:13:14Z</time>
      </trkpt>
      <trkpt lat="44.79552" lon="0.73805">
        <ele>87</ele>
        <time>2010-11-04T11:13:24Z</time>
      </trkpt>
      <trkpt lat="44.79556" lon="0.738">
        <ele>86</ele>
        <time>2010-11-04T11:13:28Z</time>
      </trkpt>
      <trkpt lat="44.79581" lon="0.73788">
        <ele>85</ele>
        <time>2010-11-04T11:13:39Z</time>
      </trkpt>
      <trkpt lat="44.79585" lon="0.73787">
        <ele>72</ele>
        <time>2010-11-04T11:13:41Z</time>
      </trkpt>
      <trkpt lat="44.79595" lon="0.73781">
        <ele>73</ele>
        <time>2010-11-04T11:13:49Z</time>
      </trkpt>
      <trkpt lat="44.79599" lon="0.73778">
        <ele>73</ele>
        <time>2010-11-04T11:13:52Z</time>
      </trkpt>
      <trkpt lat="44.79612" lon="0.73769">
        <ele>72</ele>
        <time>2010-11-04T11:14:05Z</time>
      </trkpt>
      <trkpt lat="44.79621" lon="0.73762">
        <ele>71</ele>
        <time>2010-11-04T11:14:17Z</time>
      </trkpt>
      <trkpt lat="44.79627" lon="0.73754">
        <ele>70</ele>
        <time>2010-11-04T11:14:36Z</time>
      </trkpt>
      <trkpt lat="44.79636" lon="0.73745">
        <ele>79</ele>
        <time>2010-11-04T11:14:48Z</time>
      </trkpt>
      <trkpt lat="44.79643" lon="0.73735">
        <ele>79</ele>
        <time>2010-11-04T11:15:00Z</time>
      </trkpt>
      <trkpt lat="44.79659" lon="0.7372">
        <ele>79</ele>
        <time>2010-11-04T11:15:16Z</time>
      </trkpt>
      <trkpt lat="44.79669" lon="0.7371">
        <ele>69</ele>
        <time>2010-11-04T11:15:34Z</time>
      </trkpt>
      <trkpt lat="44.79676" lon="0.73704">
        <ele>70</ele>
        <time>2010-11-04T11:15:44Z</time>
      </trkpt>
      <trkpt lat="44.79689" lon="0.7369">
        <ele>70</ele>
        <time>2010-11-04T11:15:59Z</time>
      </trkpt>
      <trkpt lat="44.79703" lon="0.73678">
        <ele>69</ele>
        <time>2010-11-04T11:16:17Z</time>
      </trkpt>
      <trkpt lat="44.79722" lon="0.7366">
        <ele>73</ele>
        <time>2010-11-04T11:16:31Z</time>
      </trkpt>
      <trkpt lat="44.79722" lon="0.7366">
        <ele>73</ele>
        <time>2010-11-04T11:16:46Z</time>
      </trkpt>
      <trkpt lat="44.79731" lon="0.73642">
        <ele>73</ele>
        <time>2010-11-04T11:16:56Z</time>
      </trkpt>
      <trkpt lat="44.79739" lon="0.73635">
        <ele>73</ele>
        <time>2010-11-04T11:17:07Z</time>
      </trkpt>
      <trkpt lat="44.79759" lon="0.73614">
        <ele>63</ele>
        <time>2010-11-04T11:17:18Z</time>
      </trkpt>
      <trkpt lat="44.79774" lon="0.73589">
        <ele>64</ele>
        <time>2010-11-04T11:17:33Z</time>
      </trkpt>
      <trkpt lat="44.79785" lon="0.73568">
        <ele>65</ele>
        <time>2010-11-04T11:17:53Z</time>
      </trkpt>
      <trkpt lat="44.79805" lon="0.73545">
        <ele>64</ele>
        <time>2010-11-04T11:18:08Z</time>
      </trkpt>
      <trkpt lat="44.79827" lon="0.73525">
        <ele>64</ele>
        <time>2010-11-04T11:18:19Z</time>
      </trkpt>
      <trkpt lat="44.7983" lon="0.73524">
        <ele>64</ele>
        <time>2010-11-04T11:18:33Z</time>
      </trkpt>
      <trkpt lat="44.7983" lon="0.73524">
        <ele>64</ele>
        <time>2010-11-04T11:18:53Z</time>
      </trkpt>
      <trkpt lat="44.7983" lon="0.73524">
        <ele>64</ele>
        <time>2010-11-04T11:19:07Z</time>
      </trkpt>
      <trkpt lat="44.79831" lon="0.73523">
        <ele>64</ele>
        <time>2010-11-04T11:20:01Z</time>
      </trkpt>
      <trkpt lat="44.79834" lon="0.73514">
        <ele>63</ele>
        <time>2010-11-04T11:20:15Z</time>
      </trkpt>
      <trkpt lat="44.79828" lon="0.73497">
        <ele>65</ele>
        <time>2010-11-04T11:20:35Z</time>
      </trkpt>
      <trkpt lat="44.79815" lon="0.73468">
        <ele>69</ele>
        <time>2010-11-04T11:20:48Z</time>
      </trkpt>
      <trkpt lat="44.79814" lon="0.73463">
        <ele>70</ele>
        <time>2010-11-04T11:20:52Z</time>
      </trkpt>
      <trkpt lat="44.7981" lon="0.73457">
        <ele>70</ele>
        <time>2010-11-04T11:21:00Z</time>
      </trkpt>
      <trkpt lat="44.79798" lon="0.73443">
        <ele>70</ele>
        <time>2010-11-04T11:21:14Z</time>
      </trkpt>
      <trkpt lat="44.7979" lon="0.73431">
        <ele>70</ele>
        <time>2010-11-04T11:21:27Z</time>
      </trkpt>
      <trkpt lat="44.79781" lon="0.7342">
        <ele>69</ele>
        <time>2010-11-04T11:21:37Z</time>
      </trkpt>
      <trkpt lat="44.79766" lon="0.73399">
        <ele>74</ele>
        <time>2010-11-04T11:21:51Z</time>
      </trkpt>
      <trkpt lat="44.79762" lon="0.73392">
        <ele>75</ele>
        <time>2010-11-04T11:22:05Z</time>
      </trkpt>
      <trkpt lat="44.79751" lon="0.7337">
        <ele>77</ele>
        <time>2010-11-04T11:22:18Z</time>
      </trkpt>
      <trkpt lat="44.79741" lon="0.73344">
        <ele>74</ele>
        <time>2010-11-04T11:22:31Z</time>
      </trkpt>
      <trkpt lat="44.79726" lon="0.73318">
        <ele>77</ele>
        <time>2010-11-04T11:22:44Z</time>
      </trkpt>
      <trkpt lat="44.79712" lon="0.73297">
        <ele>78</ele>
        <time>2010-11-04T11:22:57Z</time>
      </trkpt>
      <trkpt lat="44.79696" lon="0.7328">
        <ele>78</ele>
        <time>2010-11-04T11:23:12Z</time>
      </trkpt>
      <trkpt lat="44.79686" lon="0.7327">
        <ele>77</ele>
        <time>2010-11-04T11:23:24Z</time>
      </trkpt>
      <trkpt lat="44.79672" lon="0.73256">
        <ele>75</ele>
        <time>2010-11-04T11:23:37Z</time>
      </trkpt>
      <trkpt lat="44.7967" lon="0.73254">
        <ele>75</ele>
        <time>2010-11-04T11:23:39Z</time>
      </trkpt>
      <trkpt lat="44.79657" lon="0.73239">
        <ele>77</ele>
        <time>2010-11-04T11:23:52Z</time>
      </trkpt>
      <trkpt lat="44.7965" lon="0.73231">
        <ele>78</ele>
        <time>2010-11-04T11:24:04Z</time>
      </trkpt>
      <trkpt lat="44.79644" lon="0.73225">
        <ele>79</ele>
        <time>2010-11-04T11:24:16Z</time>
      </trkpt>
      <trkpt lat="44.79635" lon="0.73214">
        <ele>80</ele>
        <time>2010-11-04T11:24:28Z</time>
      </trkpt>
      <trkpt lat="44.79624" lon="0.73196">
        <ele>80</ele>
        <time>2010-11-04T11:24:39Z</time>
      </trkpt>
      <trkpt lat="44.79613" lon="0.73179">
        <ele>80</ele>
        <time>2010-11-04T11:24:55Z</time>
      </trkpt>
      <trkpt lat="44.79607" lon="0.73166">
        <ele>84</ele>
        <time>2010-11-04T11:25:09Z</time>
      </trkpt>
      <trkpt lat="44.79601" lon="0.73147">
        <ele>84</ele>
        <time>2010-11-04T11:25:20Z</time>
      </trkpt>
      <trkpt lat="44.79594" lon="0.73126">
        <ele>85</ele>
        <time>2010-11-04T11:25:31Z</time>
      </trkpt>
      <trkpt lat="44.79592" lon="0.73114">
        <ele>85</ele>
        <time>2010-11-04T11:25:41Z</time>
      </trkpt>
      <trkpt lat="44.79593" lon="0.73097">
        <ele>84</ele>
        <time>2010-11-04T11:25:54Z</time>
      </trkpt>
      <trkpt lat="44.79593" lon="0.73078">
        <ele>84</ele>
        <time>2010-11-04T11:26:08Z</time>
      </trkpt>
      <trkpt lat="44.79592" lon="0.73059">
        <ele>89</ele>
        <time>2010-11-04T11:26:19Z</time>
      </trkpt>
      <trkpt lat="44.79593" lon="0.73046">
        <ele>91</ele>
        <time>2010-11-04T11:26:37Z</time>
      </trkpt>
      <trkpt lat="44.79592" lon="0.73024">
        <ele>90</ele>
        <time>2010-11-04T11:26:54Z</time>
      </trkpt>
      <trkpt lat="44.79593" lon="0.73013">
        <ele>89</ele>
        <time>2010-11-04T11:27:03Z</time>
      </trkpt>
      <trkpt lat="44.79589" lon="0.72995">
        <ele>87</ele>
        <time>2010-11-04T11:27:22Z</time>
      </trkpt>
      <trkpt lat="44.79583" lon="0.72957">
        <ele>84</ele>
        <time>2010-11-04T11:27:43Z</time>
      </trkpt>
      <trkpt lat="44.79575" lon="0.72925">
        <ele>86</ele>
        <time>2010-11-04T11:27:53Z</time>
      </trkpt>
      <trkpt lat="44.79565" lon="0.72904">
        <ele>87</ele>
        <time>2010-11-04T11:28:05Z</time>
      </trkpt>
      <trkpt lat="44.79562" lon="0.72898">
        <ele>87</ele>
        <time>2010-11-04T11:28:09Z</time>
      </trkpt>
      <trkpt lat="44.79551" lon="0.72874">
        <ele>87</ele>
        <time>2010-11-04T11:28:25Z</time>
      </trkpt>
      <trkpt lat="44.79548" lon="0.72864">
        <ele>88</ele>
        <time>2010-11-04T11:28:35Z</time>
      </trkpt>
      <trkpt lat="44.79542" lon="0.72838">
        <ele>88</ele>
        <time>2010-11-04T11:28:47Z</time>
      </trkpt>
      <trkpt lat="44.79532" lon="0.7281">
        <ele>92</ele>
        <time>2010-11-04T11:29:04Z</time>
      </trkpt>
      <trkpt lat="44.79529" lon="0.72796">
        <ele>92</ele>
        <time>2010-11-04T11:29:25Z</time>
      </trkpt>
      <trkpt lat="44.79526" lon="0.72778">
        <ele>92</ele>
        <time>2010-11-04T11:30:00Z</time>
      </trkpt>
      <trkpt lat="44.79522" lon="0.72759">
        <ele>91</ele>
        <time>2010-11-04T11:30:09Z</time>
      </trkpt>
      <trkpt lat="44.79522" lon="0.72757">
        <ele>91</ele>
        <time>2010-11-04T11:30:10Z</time>
      </trkpt>
      <trkpt lat="44.79515" lon="0.72738">
        <ele>93</ele>
        <time>2010-11-04T11:30:23Z</time>
      </trkpt>
      <trkpt lat="44.79513" lon="0.72723">
        <ele>95</ele>
        <time>2010-11-04T11:30:34Z</time>
      </trkpt>
      <trkpt lat="44.7951" lon="0.72703">
        <ele>95</ele>
        <time>2010-11-04T11:30:46Z</time>
      </trkpt>
      <trkpt lat="44.79508" lon="0.72694">
        <ele>95</ele>
        <time>2010-11-04T11:30:51Z</time>
      </trkpt>
      <trkpt lat="44.79507" lon="0.72691">
        <ele>95</ele>
        <time>2010-11-04T11:30:54Z</time>
      </trkpt>
      <trkpt lat="44.79507" lon="0.72689">
        <ele>94</ele>
        <time>2010-11-04T11:30:55Z</time>
      </trkpt>
      <trkpt lat="44.79503" lon="0.72669">
        <ele>90</ele>
        <time>2010-11-04T11:31:10Z</time>
      </trkpt>
      <trkpt lat="44.79505" lon="0.72662">
        <ele>91</ele>
        <time>2010-11-04T11:31:14Z</time>
      </trkpt>
      <trkpt lat="44.79508" lon="0.72641">
        <ele>97</ele>
        <time>2010-11-04T11:31:28Z</time>
      </trkpt>
      <trkpt lat="44.79514" lon="0.72605">
        <ele>98</ele>
        <time>2010-11-04T11:31:53Z</time>
      </trkpt>
      <trkpt lat="44.7952" lon="0.72572">
        <ele>99</ele>
        <time>2010-11-04T11:32:12Z</time>
      </trkpt>
      <trkpt lat="44.79524" lon="0.72562">
        <ele>100</ele>
        <time>2010-11-04T11:32:24Z</time>
      </trkpt>
      <trkpt lat="44.79529" lon="0.7255">
        <ele>101</ele>
        <time>2010-11-04T11:32:34Z</time>
      </trkpt>
      <trkpt lat="44.7953" lon="0.72549">
        <ele>101</ele>
        <time>2010-11-04T11:32:36Z</time>
      </trkpt>
      <trkpt lat="44.79534" lon="0.72514">
        <ele>102</ele>
        <time>2010-11-04T11:32:52Z</time>
      </trkpt>
      <trkpt lat="44.79535" lon="0.72509">
        <ele>102</ele>
        <time>2010-11-04T11:32:56Z</time>
      </trkpt>
      <trkpt lat="44.79535" lon="0.72508">
        <ele>102</ele>
        <time>2010-11-04T11:32:57Z</time>
      </trkpt>
      <trkpt lat="44.79535" lon="0.72504">
        <ele>102</ele>
        <time>2010-11-04T11:32:59Z</time>
      </trkpt>
      <trkpt lat="44.79535" lon="0.7249">
        <ele>103</ele>
        <time>2010-11-04T11:33:07Z</time>
      </trkpt>
      <trkpt lat="44.79535" lon="0.72487">
        <ele>103</ele>
        <time>2010-11-04T11:33:08Z</time>
      </trkpt>
      <trkpt lat="44.79534" lon="0.7247">
        <ele>103</ele>
        <time>2010-11-04T11:33:19Z</time>
      </trkpt>
      <trkpt lat="44.79524" lon="0.72441">
        <ele>102</ele>
        <time>2010-11-04T11:33:37Z</time>
      </trkpt>
      <trkpt lat="44.79518" lon="0.72428">
        <ele>101</ele>
        <time>2010-11-04T11:33:46Z</time>
      </trkpt>
      <trkpt lat="44.79513" lon="0.72408">
        <ele>101</ele>
        <time>2010-11-04T11:34:00Z</time>
      </trkpt>
      <trkpt lat="44.79508" lon="0.72398">
        <ele>102</ele>
        <time>2010-11-04T11:34:09Z</time>
      </trkpt>
      <trkpt lat="44.79507" lon="0.72395">
        <ele>102</ele>
        <time>2010-11-04T11:34:11Z</time>
      </trkpt>
      <trkpt lat="44.795" lon="0.72366">
        <ele>98</ele>
        <time>2010-11-04T11:34:27Z</time>
      </trkpt>
      <trkpt lat="44.79493" lon="0.72346">
        <ele>99</ele>
        <time>2010-11-04T11:34:42Z</time>
      </trkpt>
      <trkpt lat="44.79485" lon="0.72328">
        <ele>100</ele>
        <time>2010-11-04T11:34:54Z</time>
      </trkpt>
      <trkpt lat="44.79478" lon="0.72307">
        <ele>100</ele>
        <time>2010-11-04T11:35:12Z</time>
      </trkpt>
      <trkpt lat="44.79474" lon="0.7229">
        <ele>100</ele>
        <time>2010-11-04T11:35:24Z</time>
      </trkpt>
      <trkpt lat="44.79463" lon="0.72268">
        <ele>100</ele>
        <time>2010-11-04T11:35:46Z</time>
      </trkpt>
      <trkpt lat="44.79458" lon="0.72242">
        <ele>105</ele>
        <time>2010-11-04T11:36:05Z</time>
      </trkpt>
      <trkpt lat="44.79455" lon="0.72208">
        <ele>106</ele>
        <time>2010-11-04T11:36:29Z</time>
      </trkpt>
      <trkpt lat="44.7945" lon="0.72203">
        <ele>106</ele>
        <time>2010-11-04T11:36:44Z</time>
      </trkpt>
      <trkpt lat="44.79442" lon="0.7222">
        <ele>104</ele>
        <time>2010-11-04T11:36:57Z</time>
      </trkpt>
      <trkpt lat="44.79425" lon="0.72227">
        <ele>102</ele>
        <time>2010-11-04T11:37:07Z</time>
      </trkpt>
      <trkpt lat="44.79413" lon="0.72237">
        <ele>99</ele>
        <time>2010-11-04T11:37:20Z</time>
      </trkpt>
      <trkpt lat="44.79398" lon="0.72227">
        <ele>101</ele>
        <time>2010-11-04T11:37:34Z</time>
      </trkpt>
      <trkpt lat="44.79385" lon="0.72225">
        <ele>102</ele>
        <time>2010-11-04T11:37:48Z</time>
      </trkpt>
      <trkpt lat="44.7937" lon="0.72227">
        <ele>102</ele>
        <time>2010-11-04T11:38:02Z</time>
      </trkpt>
      <trkpt lat="44.79365" lon="0.72225">
        <ele>102</ele>
        <time>2010-11-04T11:38:07Z</time>
      </trkpt>
      <trkpt lat="44.79354" lon="0.72219">
        <ele>103</ele>
        <time>2010-11-04T11:38:20Z</time>
      </trkpt>
      <trkpt lat="44.79345" lon="0.72212">
        <ele>103</ele>
        <time>2010-11-04T11:38:32Z</time>
      </trkpt>
      <trkpt lat="44.79332" lon="0.72201">
        <ele>108</ele>
        <time>2010-11-04T11:38:46Z</time>
      </trkpt>
      <trkpt lat="44.79323" lon="0.72192">
        <ele>108</ele>
        <time>2010-11-04T11:38:57Z</time>
      </trkpt>
      <trkpt lat="44.7932" lon="0.7219">
        <ele>109</ele>
        <time>2010-11-04T11:39:01Z</time>
      </trkpt>
      <trkpt lat="44.7931" lon="0.72176">
        <ele>109</ele>
        <time>2010-11-04T11:39:16Z</time>
      </trkpt>
      <trkpt lat="44.79305" lon="0.72164">
        <ele>114</ele>
        <time>2010-11-04T11:39:28Z</time>
      </trkpt>
      <trkpt lat="44.79299" lon="0.72149">
        <ele>115</ele>
        <time>2010-11-04T11:39:43Z</time>
      </trkpt>
      <trkpt lat="44.79294" lon="0.72138">
        <ele>116</ele>
        <time>2010-11-04T11:39:56Z</time>
      </trkpt>
      <trkpt lat="44.79287" lon="0.72114">
        <ele>117</ele>
        <time>2010-11-04T11:40:13Z</time>
      </trkpt>
      <trkpt lat="44.79277" lon="0.72088">
        <ele>118</ele>
        <time>2010-11-04T11:40:32Z</time>
      </trkpt>
      <trkpt lat="44.79269" lon="0.72073">
        <ele>122</ele>
        <time>2010-11-04T11:40:42Z</time>
      </trkpt>
      <trkpt lat="44.79266" lon="0.72066">
        <ele>122</ele>
        <time>2010-11-04T11:40:54Z</time>
      </trkpt>
      <trkpt lat="44.79265" lon="0.72065">
        <ele>122</ele>
        <time>2010-11-04T11:40:56Z</time>
      </trkpt>
      <trkpt lat="44.79254" lon="0.72049">
        <ele>123</ele>
        <time>2010-11-04T11:41:11Z</time>
      </trkpt>
      <trkpt lat="44.79245" lon="0.7203">
        <ele>127</ele>
        <time>2010-11-04T11:41:26Z</time>
      </trkpt>
      <trkpt lat="44.79235" lon="0.7201">
        <ele>128</ele>
        <time>2010-11-04T11:41:41Z</time>
      </trkpt>
      <trkpt lat="44.79231" lon="0.71999">
        <ele>132</ele>
        <time>2010-11-04T11:41:56Z</time>
      </trkpt>
      <trkpt lat="44.79226" lon="0.71985">
        <ele>133</ele>
        <time>2010-11-04T11:42:06Z</time>
      </trkpt>
      <trkpt lat="44.79221" lon="0.71974">
        <ele>134</ele>
        <time>2010-11-04T11:42:19Z</time>
      </trkpt>
      <trkpt lat="44.79215" lon="0.71958">
        <ele>134</ele>
        <time>2010-11-04T11:42:34Z</time>
      </trkpt>
      <trkpt lat="44.79215" lon="0.71939">
        <ele>135</ele>
        <time>2010-11-04T11:42:46Z</time>
      </trkpt>
      <trkpt lat="44.79214" lon="0.71925">
        <ele>136</ele>
        <time>2010-11-04T11:42:59Z</time>
      </trkpt>
      <trkpt lat="44.79211" lon="0.71911">
        <ele>139</ele>
        <time>2010-11-04T11:43:13Z</time>
      </trkpt>
      <trkpt lat="44.79206" lon="0.71894">
        <ele>140</ele>
        <time>2010-11-04T11:43:27Z</time>
      </trkpt>
      <trkpt lat="44.79206" lon="0.71893">
        <ele>140</ele>
        <time>2010-11-04T11:43:28Z</time>
      </trkpt>
      <trkpt lat="44.79201" lon="0.71878">
        <ele>140</ele>
        <time>2010-11-04T11:43:47Z</time>
      </trkpt>
      <trkpt lat="44.79187" lon="0.71855">
        <ele>141</ele>
        <time>2010-11-04T11:44:10Z</time>
      </trkpt>
      <trkpt lat="44.79178" lon="0.71842">
        <ele>142</ele>
        <time>2010-11-04T11:44:21Z</time>
      </trkpt>
      <trkpt lat="44.79173" lon="0.71831">
        <ele>143</ele>
        <time>2010-11-04T11:44:30Z</time>
      </trkpt>
      <trkpt lat="44.79162" lon="0.71811">
        <ele>145</ele>
        <time>2010-11-04T11:44:42Z</time>
      </trkpt>
      <trkpt lat="44.79157" lon="0.71797">
        <ele>145</ele>
        <time>2010-11-04T11:44:56Z</time>
      </trkpt>
      <trkpt lat="44.79157" lon="0.71796">
        <ele>145</ele>
        <time>2010-11-04T11:45:00Z</time>
      </trkpt>
      <trkpt lat="44.79138" lon="0.71792">
        <ele>146</ele>
        <time>2010-11-04T11:45:16Z</time>
      </trkpt>
      <trkpt lat="44.7912" lon="0.71787">
        <ele>146</ele>
        <time>2010-11-04T11:45:31Z</time>
      </trkpt>
      <trkpt lat="44.79101" lon="0.7178">
        <ele>147</ele>
        <time>2010-11-04T11:45:47Z</time>
      </trkpt>
      <trkpt lat="44.79086" lon="0.71771">
        <ele>148</ele>
        <time>2010-11-04T11:46:01Z</time>
      </trkpt>
      <trkpt lat="44.79072" lon="0.71763">
        <ele>150</ele>
        <time>2010-11-04T11:46:13Z</time>
      </trkpt>
      <trkpt lat="44.79059" lon="0.7176">
        <ele>151</ele>
        <time>2010-11-04T11:46:26Z</time>
      </trkpt>
      <trkpt lat="44.79045" lon="0.71757">
        <ele>151</ele>
        <time>2010-11-04T11:46:38Z</time>
      </trkpt>
      <trkpt lat="44.79028" lon="0.71753">
        <ele>152</ele>
        <time>2010-11-04T11:46:54Z</time>
      </trkpt>
      <trkpt lat="44.79013" lon="0.71745">
        <ele>155</ele>
        <time>2010-11-04T11:47:07Z</time>
      </trkpt>
      <trkpt lat="44.78997" lon="0.71733">
        <ele>157</ele>
        <time>2010-11-04T11:47:22Z</time>
      </trkpt>
      <trkpt lat="44.78985" lon="0.71724">
        <ele>157</ele>
        <time>2010-11-04T11:47:35Z</time>
      </trkpt>
      <trkpt lat="44.7898" lon="0.71722">
        <ele>158</ele>
        <time>2010-11-04T11:47:41Z</time>
      </trkpt>
      <trkpt lat="44.78968" lon="0.7174">
        <ele>158</ele>
        <time>2010-11-04T11:47:56Z</time>
      </trkpt>
      <trkpt lat="44.7896" lon="0.71756">
        <ele>156</ele>
        <time>2010-11-04T11:48:08Z</time>
      </trkpt>
      <trkpt lat="44.78959" lon="0.71757">
        <ele>156</ele>
        <time>2010-11-04T11:48:09Z</time>
      </trkpt>
      <trkpt lat="44.78958" lon="0.71759">
        <ele>156</ele>
        <time>2010-11-04T11:48:11Z</time>
      </trkpt>
      <trkpt lat="44.78948" lon="0.71774">
        <ele>156</ele>
        <time>2010-11-04T11:48:24Z</time>
      </trkpt>
      <trkpt lat="44.7894" lon="0.71786">
        <ele>156</ele>
        <time>2010-11-04T11:48:32Z</time>
      </trkpt>
      <trkpt lat="44.78936" lon="0.71791">
        <ele>156</ele>
        <time>2010-11-04T11:48:40Z</time>
      </trkpt>
      <trkpt lat="44.78919" lon="0.71798">
        <ele>155</ele>
        <time>2010-11-04T11:48:53Z</time>
      </trkpt>
      <trkpt lat="44.78906" lon="0.71814">
        <ele>155</ele>
        <time>2010-11-04T11:49:08Z</time>
      </trkpt>
      <trkpt lat="44.7889" lon="0.71827">
        <ele>155</ele>
        <time>2010-11-04T11:49:23Z</time>
      </trkpt>
      <trkpt lat="44.78871" lon="0.71842">
        <ele>149</ele>
        <time>2010-11-04T11:49:40Z</time>
      </trkpt>
      <trkpt lat="44.78859" lon="0.71851">
        <ele>149</ele>
        <time>2010-11-04T11:49:53Z</time>
      </trkpt>
      <trkpt lat="44.78844" lon="0.71861">
        <ele>148</ele>
        <time>2010-11-04T11:50:06Z</time>
      </trkpt>
      <trkpt lat="44.78839" lon="0.71864">
        <ele>148</ele>
        <time>2010-11-04T11:50:10Z</time>
      </trkpt>
      <trkpt lat="44.78822" lon="0.71867">
        <ele>144</ele>
        <time>2010-11-04T11:50:24Z</time>
      </trkpt>
      <trkpt lat="44.7882" lon="0.71866">
        <ele>144</ele>
        <time>2010-11-04T11:50:26Z</time>
      </trkpt>
      <trkpt lat="44.78809" lon="0.71869">
        <ele>143</ele>
        <time>2010-11-04T11:50:41Z</time>
      </trkpt>
      <trkpt lat="44.7881" lon="0.7187">
        <ele>143</ele>
        <time>2010-11-04T11:50:45Z</time>
      </trkpt>
      <trkpt lat="44.78817" lon="0.71877">
        <ele>143</ele>
        <time>2010-11-04T11:50:56Z</time>
      </trkpt>
      <trkpt lat="44.78816" lon="0.71876">
        <ele>143</ele>
        <time>2010-11-04T11:51:23Z</time>
      </trkpt>
      <trkpt lat="44.78813" lon="0.71869">
        <ele>144</ele>
        <time>2010-11-04T11:51:28Z</time>
      </trkpt>
      <trkpt lat="44.78812" lon="0.71878">
        <ele>143</ele>
        <time>2010-11-04T11:51:43Z</time>
      </trkpt>
      <trkpt lat="44.78809" lon="0.71879">
        <ele>143</ele>
        <time>2010-11-04T11:52:01Z</time>
      </trkpt>
      <trkpt lat="44.7881" lon="0.71879">
        <ele>143</ele>
        <time>2010-11-04T11:52:42Z</time>
      </trkpt>
      <trkpt lat="44.7881" lon="0.71878">
        <ele>143</ele>
        <time>2010-11-04T11:53:49Z</time>
      </trkpt>
      <trkpt lat="44.7881" lon="0.71878">
        <ele>143</ele>
        <time>2010-11-04T12:28:35Z</time>
      </trkpt>
      <trkpt lat="44.7881" lon="0.71878">
        <ele>143</ele>
        <time>2010-11-04T12:28:36Z</time>
      </trkpt>
      <trkpt lat="44.7879" lon="0.71861">
        <ele>143</ele>
        <time>2010-11-04T12:28:41Z</time>
      </trkpt>
      <trkpt lat="44.78805" lon="0.7187">
        <ele>143</ele>
        <time>2010-11-04T12:28:53Z</time>
      </trkpt>
      <trkpt lat="44.78806" lon="0.71874">
        <ele>143</ele>
        <time>2010-11-04T12:29:05Z</time>
      </trkpt>
      <trkpt lat="44.78807" lon="0.71874">
        <ele>143</ele>
        <time>2010-11-04T12:29:32Z</time>
      </trkpt>
      <trkpt lat="44.78808" lon="0.71875">
        <ele>143</ele>
        <time>2010-11-04T12:29:36Z</time>
      </trkpt>
      <trkpt lat="44.78809" lon="0.71878">
        <ele>143</ele>
        <time>2010-11-04T12:30:11Z</time>
      </trkpt>
      <trkpt lat="44.78816" lon="0.71874">
        <ele>143</ele>
        <time>2010-11-04T12:30:26Z</time>
      </trkpt>
      <trkpt lat="44.78815" lon="0.71867">
        <ele>144</ele>
        <time>2010-11-04T12:30:35Z</time>
      </trkpt>
      <trkpt lat="44.78806" lon="0.71863">
        <ele>144</ele>
        <time>2010-11-04T12:30:52Z</time>
      </trkpt>
      <trkpt lat="44.78806" lon="0.71863">
        <ele>144</ele>
        <time>2010-11-04T12:30:53Z</time>
      </trkpt>
      <trkpt lat="44.78791" lon="0.71855">
        <ele>143</ele>
        <time>2010-11-04T12:31:07Z</time>
      </trkpt>
      <trkpt lat="44.78776" lon="0.71847">
        <ele>143</ele>
        <time>2010-11-04T12:31:22Z</time>
      </trkpt>
      <trkpt lat="44.78765" lon="0.71843">
        <ele>142</ele>
        <time>2010-11-04T12:31:33Z</time>
      </trkpt>
      <trkpt lat="44.7875" lon="0.71833">
        <ele>142</ele>
        <time>2010-11-04T12:31:46Z</time>
      </trkpt>
      <trkpt lat="44.78744" lon="0.71827">
        <ele>143</ele>
        <time>2010-11-04T12:31:58Z</time>
      </trkpt>
      <trkpt lat="44.78744" lon="0.71827">
        <ele>143</ele>
        <time>2010-11-04T12:31:59Z</time>
      </trkpt>
      <trkpt lat="44.78738" lon="0.7182">
        <ele>143</ele>
        <time>2010-11-04T12:32:11Z</time>
      </trkpt>
      <trkpt lat="44.78736" lon="0.71818">
        <ele>143</ele>
        <time>2010-11-04T12:32:18Z</time>
      </trkpt>
      <trkpt lat="44.78722" lon="0.71815">
        <ele>143</ele>
        <time>2010-11-04T12:32:30Z</time>
      </trkpt>
      <trkpt lat="44.78683" lon="0.71817">
        <ele>141</ele>
        <time>2010-11-04T12:32:44Z</time>
      </trkpt>
      <trkpt lat="44.78669" lon="0.71826">
        <ele>137</ele>
        <time>2010-11-04T12:32:55Z</time>
      </trkpt>
      <trkpt lat="44.78665" lon="0.71833">
        <ele>135</ele>
        <time>2010-11-04T12:33:00Z</time>
      </trkpt>
      <trkpt lat="44.78658" lon="0.71842">
        <ele>133</ele>
        <time>2010-11-04T12:33:09Z</time>
      </trkpt>
      <trkpt lat="44.78649" lon="0.71858">
        <ele>131</ele>
        <time>2010-11-04T12:33:22Z</time>
      </trkpt>
      <trkpt lat="44.78637" lon="0.71875">
        <ele>130</ele>
        <time>2010-11-04T12:33:36Z</time>
      </trkpt>
      <trkpt lat="44.78634" lon="0.7188">
        <ele>130</ele>
        <time>2010-11-04T12:33:40Z</time>
      </trkpt>
      <trkpt lat="44.78631" lon="0.71884">
        <ele>130</ele>
        <time>2010-11-04T12:33:44Z</time>
      </trkpt>
      <trkpt lat="44.78622" lon="0.71905">
        <ele>129</ele>
        <time>2010-11-04T12:33:59Z</time>
      </trkpt>
      <trkpt lat="44.78616" lon="0.71923">
        <ele>128</ele>
        <time>2010-11-04T12:34:13Z</time>
      </trkpt>
      <trkpt lat="44.78614" lon="0.71925">
        <ele>128</ele>
        <time>2010-11-04T12:34:30Z</time>
      </trkpt>
      <trkpt lat="44.78607" lon="0.71927">
        <ele>128</ele>
        <time>2010-11-04T12:34:45Z</time>
      </trkpt>
      <trkpt lat="44.78599" lon="0.71922">
        <ele>128</ele>
        <time>2010-11-04T12:34:54Z</time>
      </trkpt>
      <trkpt lat="44.78585" lon="0.71917">
        <ele>128</ele>
        <time>2010-11-04T12:35:09Z</time>
      </trkpt>
      <trkpt lat="44.78575" lon="0.71909">
        <ele>130</ele>
        <time>2010-11-04T12:35:21Z</time>
      </trkpt>
      <trkpt lat="44.78568" lon="0.71904">
        <ele>131</ele>
        <time>2010-11-04T12:35:33Z</time>
      </trkpt>
      <trkpt lat="44.78564" lon="0.71901">
        <ele>132</ele>
        <time>2010-11-04T12:35:37Z</time>
      </trkpt>
      <trkpt lat="44.78553" lon="0.71893">
        <ele>132</ele>
        <time>2010-11-04T12:35:48Z</time>
      </trkpt>
      <trkpt lat="44.78539" lon="0.71886">
        <ele>133</ele>
        <time>2010-11-04T12:35:59Z</time>
      </trkpt>
      <trkpt lat="44.78526" lon="0.71882">
        <ele>134</ele>
        <time>2010-11-04T12:36:10Z</time>
      </trkpt>
      <trkpt lat="44.78524" lon="0.7188">
        <ele>134</ele>
        <time>2010-11-04T12:36:12Z</time>
      </trkpt>
      <trkpt lat="44.78522" lon="0.71879">
        <ele>134</ele>
        <time>2010-11-04T12:36:15Z</time>
      </trkpt>
      <trkpt lat="44.7851" lon="0.71865">
        <ele>134</ele>
        <time>2010-11-04T12:36:29Z</time>
      </trkpt>
      <trkpt lat="44.785" lon="0.71862">
        <ele>135</ele>
        <time>2010-11-04T12:36:39Z</time>
      </trkpt>
      <trkpt lat="44.78491" lon="0.71862">
        <ele>139</ele>
        <time>2010-11-04T12:36:47Z</time>
      </trkpt>
      <trkpt lat="44.78476" lon="0.7186">
        <ele>139</ele>
        <time>2010-11-04T12:37:00Z</time>
      </trkpt>
      <trkpt lat="44.78466" lon="0.7186">
        <ele>140</ele>
        <time>2010-11-04T12:37:08Z</time>
      </trkpt>
      <trkpt lat="44.7845" lon="0.71857">
        <ele>141</ele>
        <time>2010-11-04T12:37:23Z</time>
      </trkpt>
      <trkpt lat="44.78445" lon="0.71855">
        <ele>142</ele>
        <time>2010-11-04T12:37:26Z</time>
      </trkpt>
      <trkpt lat="44.78434" lon="0.71855">
        <ele>143</ele>
        <time>2010-11-04T12:37:37Z</time>
      </trkpt>
      <trkpt lat="44.78428" lon="0.71853">
        <ele>143</ele>
        <time>2010-11-04T12:37:41Z</time>
      </trkpt>
      <trkpt lat="44.78413" lon="0.71848">
        <ele>147</ele>
        <time>2010-11-04T12:37:56Z</time>
      </trkpt>
      <trkpt lat="44.78407" lon="0.71847">
        <ele>147</ele>
        <time>2010-11-04T12:38:07Z</time>
      </trkpt>
      <trkpt lat="44.784" lon="0.71841">
        <ele>147</ele>
        <time>2010-11-04T12:38:18Z</time>
      </trkpt>
      <trkpt lat="44.78398" lon="0.71836">
        <ele>147</ele>
        <time>2010-11-04T12:38:22Z</time>
      </trkpt>
      <trkpt lat="44.78387" lon="0.71829">
        <ele>149</ele>
        <time>2010-11-04T12:38:33Z</time>
      </trkpt>
      <trkpt lat="44.78376" lon="0.71828">
        <ele>150</ele>
        <time>2010-11-04T12:38:44Z</time>
      </trkpt>
      <trkpt lat="44.78364" lon="0.71827">
        <ele>150</ele>
        <time>2010-11-04T12:38:58Z</time>
      </trkpt>
      <trkpt lat="44.7836" lon="0.71829">
        <ele>150</ele>
        <time>2010-11-04T12:39:14Z</time>
      </trkpt>
      <trkpt lat="44.78346" lon="0.71834">
        <ele>150</ele>
        <time>2010-11-04T12:40:35Z</time>
      </trkpt>
      <trkpt lat="44.78331" lon="0.71842">
        <ele>151</ele>
        <time>2010-11-04T12:40:50Z</time>
      </trkpt>
      <trkpt lat="44.78318" lon="0.71838">
        <ele>150</ele>
        <time>2010-11-04T12:41:07Z</time>
      </trkpt>
      <trkpt lat="44.78296" lon="0.71835">
        <ele>149</ele>
        <time>2010-11-04T12:41:18Z</time>
      </trkpt>
      <trkpt lat="44.78268" lon="0.71828">
        <ele>154</ele>
        <time>2010-11-04T12:41:36Z</time>
      </trkpt>
      <trkpt lat="44.78254" lon="0.71831">
        <ele>154</ele>
        <time>2010-11-04T12:41:50Z</time>
      </trkpt>
      <trkpt lat="44.78243" lon="0.71834">
        <ele>152</ele>
        <time>2010-11-04T12:41:59Z</time>
      </trkpt>
      <trkpt lat="44.7822" lon="0.71833">
        <ele>155</ele>
        <time>2010-11-04T12:42:14Z</time>
      </trkpt>
      <trkpt lat="44.78208" lon="0.71835">
        <ele>148</ele>
        <time>2010-11-04T12:42:26Z</time>
      </trkpt>
      <trkpt lat="44.78199" lon="0.71834">
        <ele>149</ele>
        <time>2010-11-04T12:42:37Z</time>
      </trkpt>
      <trkpt lat="44.7819" lon="0.71833">
        <ele>154</ele>
        <time>2010-11-04T12:42:49Z</time>
      </trkpt>
      <trkpt lat="44.78189" lon="0.71832">
        <ele>154</ele>
        <time>2010-11-04T12:43:00Z</time>
      </trkpt>
      <trkpt lat="44.78178" lon="0.71832">
        <ele>153</ele>
        <time>2010-11-04T12:43:10Z</time>
      </trkpt>
      <trkpt lat="44.78148" lon="0.71828">
        <ele>153</ele>
        <time>2010-11-04T12:43:22Z</time>
      </trkpt>
      <trkpt lat="44.78126" lon="0.71824">
        <ele>154</ele>
        <time>2010-11-04T12:43:38Z</time>
      </trkpt>
      <trkpt lat="44.78114" lon="0.71824">
        <ele>153</ele>
        <time>2010-11-04T12:44:05Z</time>
      </trkpt>
      <trkpt lat="44.78114" lon="0.71824">
        <ele>153</ele>
        <time>2010-11-04T12:44:09Z</time>
      </trkpt>
      <trkpt lat="44.78114" lon="0.71824">
        <ele>153</ele>
        <time>2010-11-04T12:44:24Z</time>
      </trkpt>
      <trkpt lat="44.78114" lon="0.71824">
        <ele>153</ele>
        <time>2010-11-04T12:44:32Z</time>
      </trkpt>
      <trkpt lat="44.78113" lon="0.7183">
        <ele>153</ele>
        <time>2010-11-04T12:44:48Z</time>
      </trkpt>
      <trkpt lat="44.78113" lon="0.7183">
        <ele>153</ele>
        <time>2010-11-04T12:45:10Z</time>
      </trkpt>
      <trkpt lat="44.78113" lon="0.7183">
        <ele>153</ele>
        <time>2010-11-04T12:45:12Z</time>
      </trkpt>
      <trkpt lat="44.78112" lon="0.71831">
        <ele>153</ele>
        <time>2010-11-04T12:45:28Z</time>
      </trkpt>
      <trkpt lat="44.78112" lon="0.71831">
        <ele>153</ele>
        <time>2010-11-04T12:45:30Z</time>
      </trkpt>
      <trkpt lat="44.78112" lon="0.71831">
        <ele>153</ele>
        <time>2010-11-04T12:45:31Z</time>
      </trkpt>
      <trkpt lat="44.78112" lon="0.71831">
        <ele>153</ele>
        <time>2010-11-04T12:46:15Z</time>
      </trkpt>
      <trkpt lat="44.78112" lon="0.71831">
        <ele>153</ele>
        <time>2010-11-04T12:46:42Z</time>
      </trkpt>
      <trkpt lat="44.78112" lon="0.7183">
        <ele>153</ele>
        <time>2010-11-04T12:46:50Z</time>
      </trkpt>
      <trkpt lat="44.78112" lon="0.7183">
        <ele>153</ele>
        <time>2010-11-04T12:46:51Z</time>
      </trkpt>
      <trkpt lat="44.78112" lon="0.7183">
        <ele>153</ele>
        <time>2010-11-04T12:46:52Z</time>
      </trkpt>
      <trkpt lat="44.78112" lon="0.7183">
        <ele>153</ele>
        <time>2010-11-04T12:47:13Z</time>
      </trkpt>
      <trkpt lat="44.78112" lon="0.71831">
        <ele>153</ele>
        <time>2010-11-04T12:47:40Z</time>
      </trkpt>
      <trkpt lat="44.7811" lon="0.71833">
        <ele>153</ele>
        <time>2010-11-04T12:48:16Z</time>
      </trkpt>
      <trkpt lat="44.78106" lon="0.71845">
        <ele>148</ele>
        <time>2010-11-04T12:48:22Z</time>
      </trkpt>
      <trkpt lat="44.78102" lon="0.71861">
        <ele>147</ele>
        <time>2010-11-04T12:48:29Z</time>
      </trkpt>
      <trkpt lat="44.78097" lon="0.71881">
        <ele>145</ele>
        <time>2010-11-04T12:48:38Z</time>
      </trkpt>
      <trkpt lat="44.78092" lon="0.71898">
        <ele>144</ele>
        <time>2010-11-04T12:48:50Z</time>
      </trkpt>
      <trkpt lat="44.78091" lon="0.71902">
        <ele>143</ele>
        <time>2010-11-04T12:48:52Z</time>
      </trkpt>
      <trkpt lat="44.7809" lon="0.71933">
        <ele>141</ele>
        <time>2010-11-04T12:49:07Z</time>
      </trkpt>
      <trkpt lat="44.78088" lon="0.71943">
        <ele>141</ele>
        <time>2010-11-04T12:49:13Z</time>
      </trkpt>
      <trkpt lat="44.78088" lon="0.71959">
        <ele>141</ele>
        <time>2010-11-04T12:49:25Z</time>
      </trkpt>
      <trkpt lat="44.78088" lon="0.71964">
        <ele>141</ele>
        <time>2010-11-04T12:49:28Z</time>
      </trkpt>
      <trkpt lat="44.7809" lon="0.71984">
        <ele>141</ele>
        <time>2010-11-04T12:49:40Z</time>
      </trkpt>
      <trkpt lat="44.78091" lon="0.72007">
        <ele>143</ele>
        <time>2010-11-04T12:49:53Z</time>
      </trkpt>
      <trkpt lat="44.78091" lon="0.72009">
        <ele>143</ele>
        <time>2010-11-04T12:49:54Z</time>
      </trkpt>
      <trkpt lat="44.7809" lon="0.72016">
        <ele>144</ele>
        <time>2010-11-04T12:49:57Z</time>
      </trkpt>
      <trkpt lat="44.78089" lon="0.72034">
        <ele>145</ele>
        <time>2010-11-04T12:50:07Z</time>
      </trkpt>
      <trkpt lat="44.7809" lon="0.7204">
        <ele>145</ele>
        <time>2010-11-04T12:50:12Z</time>
      </trkpt>
      <trkpt lat="44.78091" lon="0.72068">
        <ele>148</ele>
        <time>2010-11-04T12:50:27Z</time>
      </trkpt>
      <trkpt lat="44.78092" lon="0.72088">
        <ele>150</ele>
        <time>2010-11-04T12:50:39Z</time>
      </trkpt>
      <trkpt lat="44.78094" lon="0.72109">
        <ele>150</ele>
        <time>2010-11-04T12:50:50Z</time>
      </trkpt>
      <trkpt lat="44.78094" lon="0.7213">
        <ele>151</ele>
        <time>2010-11-04T12:51:02Z</time>
      </trkpt>
      <trkpt lat="44.78095" lon="0.72149">
        <ele>152</ele>
        <time>2010-11-04T12:51:13Z</time>
      </trkpt>
      <trkpt lat="44.78095" lon="0.72172">
        <ele>153</ele>
        <time>2010-11-04T12:51:27Z</time>
      </trkpt>
      <trkpt lat="44.78095" lon="0.72179">
        <ele>153</ele>
        <time>2010-11-04T12:51:32Z</time>
      </trkpt>
      <trkpt lat="44.78095" lon="0.72183">
        <ele>153</ele>
        <time>2010-11-04T12:51:34Z</time>
      </trkpt>
      <trkpt lat="44.78095" lon="0.72187">
        <ele>153</ele>
        <time>2010-11-04T12:51:37Z</time>
      </trkpt>
      <trkpt lat="44.78095" lon="0.72206">
        <ele>154</ele>
        <time>2010-11-04T12:51:49Z</time>
      </trkpt>
      <trkpt lat="44.78095" lon="0.72218">
        <ele>154</ele>
        <time>2010-11-04T12:51:56Z</time>
      </trkpt>
      <trkpt lat="44.78094" lon="0.7224">
        <ele>155</ele>
        <time>2010-11-04T12:52:10Z</time>
      </trkpt>
      <trkpt lat="44.78095" lon="0.72243">
        <ele>155</ele>
        <time>2010-11-04T12:52:14Z</time>
      </trkpt>
      <trkpt lat="44.78094" lon="0.72268">
        <ele>154</ele>
        <time>2010-11-04T12:52:30Z</time>
      </trkpt>
      <trkpt lat="44.78092" lon="0.72285">
        <ele>154</ele>
        <time>2010-11-04T12:52:46Z</time>
      </trkpt>
      <trkpt lat="44.78089" lon="0.72299">
        <ele>153</ele>
        <time>2010-11-04T12:52:59Z</time>
      </trkpt>
      <trkpt lat="44.78087" lon="0.72305">
        <ele>153</ele>
        <time>2010-11-04T12:53:19Z</time>
      </trkpt>
      <trkpt lat="44.78087" lon="0.72305">
        <ele>153</ele>
        <time>2010-11-04T12:53:30Z</time>
      </trkpt>
      <trkpt lat="44.78087" lon="0.72307">
        <ele>153</ele>
        <time>2010-11-04T12:53:42Z</time>
      </trkpt>
      <trkpt lat="44.78085" lon="0.72311">
        <ele>153</ele>
        <time>2010-11-04T12:53:44Z</time>
      </trkpt>
      <trkpt lat="44.78081" lon="0.72326">
        <ele>154</ele>
        <time>2010-11-04T12:54:00Z</time>
      </trkpt>
      <trkpt lat="44.7808" lon="0.72353">
        <ele>152</ele>
        <time>2010-11-04T12:54:10Z</time>
      </trkpt>
      <trkpt lat="44.78079" lon="0.72387">
        <ele>151</ele>
        <time>2010-11-04T12:54:23Z</time>
      </trkpt>
      <trkpt lat="44.78079" lon="0.72403">
        <ele>149</ele>
        <time>2010-11-04T12:54:29Z</time>
      </trkpt>
      <trkpt lat="44.78081" lon="0.72435">
        <ele>148</ele>
        <time>2010-11-04T12:54:43Z</time>
      </trkpt>
      <trkpt lat="44.78082" lon="0.72458">
        <ele>148</ele>
        <time>2010-11-04T12:54:55Z</time>
      </trkpt>
      <trkpt lat="44.78085" lon="0.72489">
        <ele>148</ele>
        <time>2010-11-04T12:55:09Z</time>
      </trkpt>
      <trkpt lat="44.78085" lon="0.72501">
        <ele>148</ele>
        <time>2010-11-04T12:55:15Z</time>
      </trkpt>
      <trkpt lat="44.78088" lon="0.72525">
        <ele>149</ele>
        <time>2010-11-04T12:55:29Z</time>
      </trkpt>
      <trkpt lat="44.78089" lon="0.72527">
        <ele>149</ele>
        <time>2010-11-04T12:55:31Z</time>
      </trkpt>
      <trkpt lat="44.78092" lon="0.72545">
        <ele>150</ele>
        <time>2010-11-04T12:55:42Z</time>
      </trkpt>
      <trkpt lat="44.78094" lon="0.72562">
        <ele>150</ele>
        <time>2010-11-04T12:55:53Z</time>
      </trkpt>
      <trkpt lat="44.78093" lon="0.72568">
        <ele>150</ele>
        <time>2010-11-04T12:56:14Z</time>
      </trkpt>
      <trkpt lat="44.78093" lon="0.72568">
        <ele>150</ele>
        <time>2010-11-04T12:56:44Z</time>
      </trkpt>
      <trkpt lat="44.78095" lon="0.72579">
        <ele>150</ele>
        <time>2010-11-04T12:58:05Z</time>
      </trkpt>
      <trkpt lat="44.78096" lon="0.72583">
        <ele>150</ele>
        <time>2010-11-04T12:58:07Z</time>
      </trkpt>
      <trkpt lat="44.78099" lon="0.72608">
        <ele>151</ele>
        <time>2010-11-04T12:58:21Z</time>
      </trkpt>
      <trkpt lat="44.78099" lon="0.7261">
        <ele>151</ele>
        <time>2010-11-04T12:58:22Z</time>
      </trkpt>
      <trkpt lat="44.781" lon="0.72617">
        <ele>151</ele>
        <time>2010-11-04T12:58:26Z</time>
      </trkpt>
      <trkpt lat="44.78101" lon="0.72626">
        <ele>151</ele>
        <time>2010-11-04T12:58:31Z</time>
      </trkpt>
      <trkpt lat="44.78103" lon="0.72648">
        <ele>151</ele>
        <time>2010-11-04T12:58:43Z</time>
      </trkpt>
      <trkpt lat="44.78105" lon="0.72671">
        <ele>151</ele>
        <time>2010-11-04T12:58:59Z</time>
      </trkpt>
      <trkpt lat="44.78105" lon="0.72674">
        <ele>151</ele>
        <time>2010-11-04T12:59:01Z</time>
      </trkpt>
      <trkpt lat="44.78106" lon="0.72677">
        <ele>151</ele>
        <time>2010-11-04T12:59:03Z</time>
      </trkpt>
      <trkpt lat="44.78107" lon="0.72701">
        <ele>151</ele>
        <time>2010-11-04T12:59:19Z</time>
      </trkpt>
      <trkpt lat="44.78109" lon="0.7271">
        <ele>151</ele>
        <time>2010-11-04T12:59:24Z</time>
      </trkpt>
      <trkpt lat="44.78113" lon="0.72734">
        <ele>150</ele>
        <time>2010-11-04T12:59:39Z</time>
      </trkpt>
      <trkpt lat="44.78114" lon="0.72742">
        <ele>150</ele>
        <time>2010-11-04T12:59:45Z</time>
      </trkpt>
      <trkpt lat="44.78114" lon="0.72747">
        <ele>150</ele>
        <time>2010-11-04T12:59:49Z</time>
      </trkpt>
      <trkpt lat="44.78118" lon="0.72774">
        <ele>149</ele>
        <time>2010-11-04T13:00:06Z</time>
      </trkpt>
      <trkpt lat="44.78117" lon="0.72791">
        <ele>148</ele>
        <time>2010-11-04T13:00:17Z</time>
      </trkpt>
      <trkpt lat="44.78113" lon="0.72817">
        <ele>148</ele>
        <time>2010-11-04T13:00:30Z</time>
      </trkpt>
      <trkpt lat="44.78112" lon="0.72836">
        <ele>145</ele>
        <time>2010-11-04T13:00:42Z</time>
      </trkpt>
      <trkpt lat="44.78113" lon="0.72849">
        <ele>145</ele>
        <time>2010-11-04T13:00:49Z</time>
      </trkpt>
      <trkpt lat="44.78112" lon="0.72859">
        <ele>145</ele>
        <time>2010-11-04T13:00:54Z</time>
      </trkpt>
      <trkpt lat="44.78111" lon="0.72874">
        <ele>144</ele>
        <time>2010-11-04T13:01:05Z</time>
      </trkpt>
      <trkpt lat="44.78108" lon="0.72901">
        <ele>143</ele>
        <time>2010-11-04T13:01:19Z</time>
      </trkpt>
      <trkpt lat="44.78107" lon="0.72919">
        <ele>142</ele>
        <time>2010-11-04T13:01:31Z</time>
      </trkpt>
      <trkpt lat="44.78106" lon="0.72933">
        <ele>142</ele>
        <time>2010-11-04T13:01:42Z</time>
      </trkpt>
      <trkpt lat="44.78105" lon="0.72954">
        <ele>142</ele>
        <time>2010-11-04T13:01:53Z</time>
      </trkpt>
      <trkpt lat="44.78101" lon="0.72976">
        <ele>142</ele>
        <time>2010-11-04T13:02:05Z</time>
      </trkpt>
      <trkpt lat="44.78099" lon="0.72998">
        <ele>141</ele>
        <time>2010-11-04T13:02:17Z</time>
      </trkpt>
      <trkpt lat="44.78097" lon="0.73016">
        <ele>140</ele>
        <time>2010-11-04T13:02:28Z</time>
      </trkpt>
      <trkpt lat="44.78096" lon="0.73019">
        <ele>140</ele>
        <time>2010-11-04T13:02:31Z</time>
      </trkpt>
      <trkpt lat="44.78095" lon="0.73046">
        <ele>139</ele>
        <time>2010-11-04T13:02:47Z</time>
      </trkpt>
      <trkpt lat="44.78092" lon="0.73067">
        <ele>137</ele>
        <time>2010-11-04T13:02:59Z</time>
      </trkpt>
      <trkpt lat="44.78089" lon="0.7308">
        <ele>134</ele>
        <time>2010-11-04T13:03:09Z</time>
      </trkpt>
      <trkpt lat="44.78089" lon="0.73087">
        <ele>133</ele>
        <time>2010-11-04T13:03:13Z</time>
      </trkpt>
      <trkpt lat="44.78087" lon="0.73097">
        <ele>134</ele>
        <time>2010-11-04T13:03:21Z</time>
      </trkpt>
      <trkpt lat="44.78087" lon="0.73097">
        <ele>134</ele>
        <time>2010-11-04T13:03:22Z</time>
      </trkpt>
      <trkpt lat="44.78086" lon="0.73113">
        <ele>135</ele>
        <time>2010-11-04T13:03:34Z</time>
      </trkpt>
      <trkpt lat="44.78084" lon="0.73134">
        <ele>135</ele>
        <time>2010-11-04T13:03:48Z</time>
      </trkpt>
      <trkpt lat="44.78076" lon="0.7316">
        <ele>128</ele>
        <time>2010-11-04T13:04:00Z</time>
      </trkpt>
      <trkpt lat="44.78075" lon="0.73171">
        <ele>127</ele>
        <time>2010-11-04T13:04:16Z</time>
      </trkpt>
      <trkpt lat="44.78072" lon="0.73192">
        <ele>125</ele>
        <time>2010-11-04T13:04:27Z</time>
      </trkpt>
      <trkpt lat="44.78072" lon="0.73211">
        <ele>124</ele>
        <time>2010-11-04T13:04:38Z</time>
      </trkpt>
      <trkpt lat="44.78072" lon="0.73217">
        <ele>124</ele>
        <time>2010-11-04T13:04:41Z</time>
      </trkpt>
      <trkpt lat="44.7807" lon="0.73222">
        <ele>124</ele>
        <time>2010-11-04T13:04:44Z</time>
      </trkpt>
      <trkpt lat="44.78065" lon="0.73236">
        <ele>123</ele>
        <time>2010-11-04T13:04:53Z</time>
      </trkpt>
      <trkpt lat="44.78062" lon="0.73247">
        <ele>123</ele>
        <time>2010-11-04T13:05:00Z</time>
      </trkpt>
      <trkpt lat="44.78059" lon="0.73253">
        <ele>120</ele>
        <time>2010-11-04T13:05:04Z</time>
      </trkpt>
      <trkpt lat="44.78056" lon="0.73264">
        <ele>120</ele>
        <time>2010-11-04T13:05:10Z</time>
      </trkpt>
      <trkpt lat="44.78055" lon="0.73284">
        <ele>119</ele>
        <time>2010-11-04T13:05:22Z</time>
      </trkpt>
      <trkpt lat="44.7805" lon="0.73295">
        <ele>118</ele>
        <time>2010-11-04T13:05:31Z</time>
      </trkpt>
      <trkpt lat="44.78047" lon="0.73302">
        <ele>118</ele>
        <time>2010-11-04T13:05:35Z</time>
      </trkpt>
      <trkpt lat="44.78046" lon="0.73309">
        <ele>117</ele>
        <time>2010-11-04T13:05:39Z</time>
      </trkpt>
      <trkpt lat="44.78045" lon="0.73311">
        <ele>117</ele>
        <time>2010-11-04T13:05:40Z</time>
      </trkpt>
      <trkpt lat="44.78045" lon="0.73321">
        <ele>117</ele>
        <time>2010-11-04T13:05:45Z</time>
      </trkpt>
      <trkpt lat="44.7805" lon="0.73341">
        <ele>115</ele>
        <time>2010-11-04T13:05:59Z</time>
      </trkpt>
      <trkpt lat="44.78053" lon="0.73343">
        <ele>115</ele>
        <time>2010-11-04T13:06:03Z</time>
      </trkpt>
      <trkpt lat="44.78057" lon="0.73359">
        <ele>115</ele>
        <time>2010-11-04T13:06:11Z</time>
      </trkpt>
      <trkpt lat="44.78058" lon="0.73362">
        <ele>115</ele>
        <time>2010-11-04T13:06:13Z</time>
      </trkpt>
      <trkpt lat="44.78062" lon="0.73374">
        <ele>116</ele>
        <time>2010-11-04T13:06:26Z</time>
      </trkpt>
      <trkpt lat="44.78064" lon="0.7338">
        <ele>116</ele>
        <time>2010-11-04T13:06:30Z</time>
      </trkpt>
      <trkpt lat="44.78066" lon="0.73385">
        <ele>116</ele>
        <time>2010-11-04T13:06:34Z</time>
      </trkpt>
      <trkpt lat="44.78069" lon="0.73394">
        <ele>116</ele>
        <time>2010-11-04T13:06:40Z</time>
      </trkpt>
      <trkpt lat="44.78075" lon="0.73404">
        <ele>116</ele>
        <time>2010-11-04T13:06:50Z</time>
      </trkpt>
      <trkpt lat="44.78089" lon="0.73418">
        <ele>118</ele>
        <time>2010-11-04T13:07:05Z</time>
      </trkpt>
      <trkpt lat="44.78101" lon="0.7343">
        <ele>119</ele>
        <time>2010-11-04T13:07:17Z</time>
      </trkpt>
      <trkpt lat="44.78112" lon="0.73441">
        <ele>120</ele>
        <time>2010-11-04T13:07:28Z</time>
      </trkpt>
      <trkpt lat="44.78123" lon="0.73453">
        <ele>120</ele>
        <time>2010-11-04T13:07:39Z</time>
      </trkpt>
      <trkpt lat="44.78125" lon="0.73455">
        <ele>120</ele>
        <time>2010-11-04T13:07:41Z</time>
      </trkpt>
      <trkpt lat="44.78133" lon="0.73467">
        <ele>121</ele>
        <time>2010-11-04T13:07:50Z</time>
      </trkpt>
      <trkpt lat="44.78143" lon="0.73476">
        <ele>121</ele>
        <time>2010-11-04T13:08:00Z</time>
      </trkpt>
      <trkpt lat="44.78158" lon="0.73494">
        <ele>123</ele>
        <time>2010-11-04T13:08:15Z</time>
      </trkpt>
      <trkpt lat="44.7817" lon="0.73508">
        <ele>125</ele>
        <time>2010-11-04T13:08:27Z</time>
      </trkpt>
      <trkpt lat="44.78178" lon="0.7352">
        <ele>126</ele>
        <time>2010-11-04T13:08:40Z</time>
      </trkpt>
      <trkpt lat="44.78188" lon="0.73533">
        <ele>127</ele>
        <time>2010-11-04T13:08:50Z</time>
      </trkpt>
      <trkpt lat="44.782" lon="0.73547">
        <ele>127</ele>
        <time>2010-11-04T13:09:02Z</time>
      </trkpt>
      <trkpt lat="44.78211" lon="0.73565">
        <ele>128</ele>
        <time>2010-11-04T13:09:17Z</time>
      </trkpt>
      <trkpt lat="44.78212" lon="0.73567">
        <ele>128</ele>
        <time>2010-11-04T13:09:20Z</time>
      </trkpt>
      <trkpt lat="44.78214" lon="0.7357">
        <ele>128</ele>
        <time>2010-11-04T13:09:22Z</time>
      </trkpt>
      <trkpt lat="44.7822" lon="0.73592">
        <ele>132</ele>
        <time>2010-11-04T13:09:36Z</time>
      </trkpt>
      <trkpt lat="44.78228" lon="0.73613">
        <ele>132</ele>
        <time>2010-11-04T13:09:52Z</time>
      </trkpt>
      <trkpt lat="44.78236" lon="0.73632">
        <ele>132</ele>
        <time>2010-11-04T13:10:04Z</time>
      </trkpt>
      <trkpt lat="44.78242" lon="0.73655">
        <ele>133</ele>
        <time>2010-11-04T13:10:17Z</time>
      </trkpt>
      <trkpt lat="44.78251" lon="0.73675">
        <ele>133</ele>
        <time>2010-11-04T13:10:32Z</time>
      </trkpt>
      <trkpt lat="44.78259" lon="0.7369">
        <ele>133</ele>
        <time>2010-11-04T13:10:44Z</time>
      </trkpt>
      <trkpt lat="44.7826" lon="0.73693">
        <ele>133</ele>
        <time>2010-11-04T13:10:47Z</time>
      </trkpt>
      <trkpt lat="44.78265" lon="0.73711">
        <ele>133</ele>
        <time>2010-11-04T13:11:00Z</time>
      </trkpt>
      <trkpt lat="44.78266" lon="0.73716">
        <ele>133</ele>
        <time>2010-11-04T13:11:03Z</time>
      </trkpt>
      <trkpt lat="44.78267" lon="0.7373">
        <ele>134</ele>
        <time>2010-11-04T13:11:12Z</time>
      </trkpt>
      <trkpt lat="44.7827" lon="0.73752">
        <ele>136</ele>
        <time>2010-11-04T13:11:25Z</time>
      </trkpt>
      <trkpt lat="44.7827" lon="0.73768">
        <ele>136</ele>
        <time>2010-11-04T13:11:37Z</time>
      </trkpt>
      <trkpt lat="44.78269" lon="0.73783">
        <ele>136</ele>
        <time>2010-11-04T13:11:50Z</time>
      </trkpt>
      <trkpt lat="44.78268" lon="0.73788">
        <ele>136</ele>
        <time>2010-11-04T13:11:55Z</time>
      </trkpt>
      <trkpt lat="44.78268" lon="0.7379">
        <ele>136</ele>
        <time>2010-11-04T13:11:57Z</time>
      </trkpt>
      <trkpt lat="44.78266" lon="0.73798">
        <ele>136</ele>
        <time>2010-11-04T13:12:04Z</time>
      </trkpt>
      <trkpt lat="44.78264" lon="0.73818">
        <ele>136</ele>
        <time>2010-11-04T13:12:18Z</time>
      </trkpt>
      <trkpt lat="44.78263" lon="0.73823">
        <ele>136</ele>
        <time>2010-11-04T13:12:24Z</time>
      </trkpt>
      <trkpt lat="44.78262" lon="0.73827">
        <ele>136</ele>
        <time>2010-11-04T13:12:27Z</time>
      </trkpt>
      <trkpt lat="44.78259" lon="0.73844">
        <ele>137</ele>
        <time>2010-11-04T13:12:41Z</time>
      </trkpt>
      <trkpt lat="44.78259" lon="0.73849">
        <ele>137</ele>
        <time>2010-11-04T13:12:45Z</time>
      </trkpt>
      <trkpt lat="44.78258" lon="0.73853">
        <ele>137</ele>
        <time>2010-11-04T13:12:49Z</time>
      </trkpt>
      <trkpt lat="44.78257" lon="0.73854">
        <ele>137</ele>
        <time>2010-11-04T13:12:50Z</time>
      </trkpt>
      <trkpt lat="44.78257" lon="0.73856">
        <ele>137</ele>
        <time>2010-11-04T13:12:51Z</time>
      </trkpt>
      <trkpt lat="44.78257" lon="0.73857">
        <ele>137</ele>
        <time>2010-11-04T13:12:52Z</time>
      </trkpt>
      <trkpt lat="44.78256" lon="0.73864">
        <ele>137</ele>
        <time>2010-11-04T13:12:57Z</time>
      </trkpt>
      <trkpt lat="44.78254" lon="0.73882">
        <ele>137</ele>
        <time>2010-11-04T13:13:12Z</time>
      </trkpt>
      <trkpt lat="44.7825" lon="0.73895">
        <ele>134</ele>
        <time>2010-11-04T13:13:20Z</time>
      </trkpt>
      <trkpt lat="44.78249" lon="0.73901">
        <ele>135</ele>
        <time>2010-11-04T13:13:24Z</time>
      </trkpt>
      <trkpt lat="44.78244" lon="0.73924">
        <ele>134</ele>
        <time>2010-11-04T13:13:40Z</time>
      </trkpt>
      <trkpt lat="44.78243" lon="0.73926">
        <ele>134</ele>
        <time>2010-11-04T13:13:41Z</time>
      </trkpt>
      <trkpt lat="44.78242" lon="0.73933">
        <ele>133</ele>
        <time>2010-11-04T13:13:46Z</time>
      </trkpt>
      <trkpt lat="44.7824" lon="0.73946">
        <ele>131</ele>
        <time>2010-11-04T13:13:57Z</time>
      </trkpt>
      <trkpt lat="44.78234" lon="0.73966">
        <ele>130</ele>
        <time>2010-11-04T13:14:08Z</time>
      </trkpt>
      <trkpt lat="44.78231" lon="0.73972">
        <ele>130</ele>
        <time>2010-11-04T13:14:13Z</time>
      </trkpt>
      <trkpt lat="44.78227" lon="0.73984">
        <ele>130</ele>
        <time>2010-11-04T13:14:21Z</time>
      </trkpt>
      <trkpt lat="44.78223" lon="0.74004">
        <ele>128</ele>
        <time>2010-11-04T13:14:33Z</time>
      </trkpt>
      <trkpt lat="44.78223" lon="0.74005">
        <ele>128</ele>
        <time>2010-11-04T13:14:34Z</time>
      </trkpt>
      <trkpt lat="44.78221" lon="0.7401">
        <ele>128</ele>
        <time>2010-11-04T13:14:53Z</time>
      </trkpt>
      <trkpt lat="44.7822" lon="0.74011">
        <ele>128</ele>
        <time>2010-11-04T13:14:57Z</time>
      </trkpt>
      <trkpt lat="44.78218" lon="0.74018">
        <ele>127</ele>
        <time>2010-11-04T13:15:08Z</time>
      </trkpt>
      <trkpt lat="44.78216" lon="0.74023">
        <ele>127</ele>
        <time>2010-11-04T13:15:10Z</time>
      </trkpt>
      <trkpt lat="44.78215" lon="0.74026">
        <ele>127</ele>
        <time>2010-11-04T13:15:12Z</time>
      </trkpt>
      <trkpt lat="44.78212" lon="0.74037">
        <ele>126</ele>
        <time>2010-11-04T13:15:19Z</time>
      </trkpt>
      <trkpt lat="44.78211" lon="0.74045">
        <ele>126</ele>
        <time>2010-11-04T13:15:24Z</time>
      </trkpt>
      <trkpt lat="44.78208" lon="0.74054">
        <ele>126</ele>
        <time>2010-11-04T13:15:30Z</time>
      </trkpt>
      <trkpt lat="44.78208" lon="0.74055">
        <ele>126</ele>
        <time>2010-11-04T13:15:31Z</time>
      </trkpt>
      <trkpt lat="44.78203" lon="0.74069">
        <ele>125</ele>
        <time>2010-11-04T13:15:40Z</time>
      </trkpt>
      <trkpt lat="44.78194" lon="0.74084">
        <ele>123</ele>
        <time>2010-11-04T13:15:53Z</time>
      </trkpt>
      <trkpt lat="44.78183" lon="0.74103">
        <ele>122</ele>
        <time>2010-11-04T13:16:06Z</time>
      </trkpt>
      <trkpt lat="44.78174" lon="0.74117">
        <ele>122</ele>
        <time>2010-11-04T13:16:17Z</time>
      </trkpt>
      <trkpt lat="44.78167" lon="0.74134">
        <ele>122</ele>
        <time>2010-11-04T13:16:29Z</time>
      </trkpt>
      <trkpt lat="44.78164" lon="0.74137">
        <ele>116</ele>
        <time>2010-11-04T13:16:38Z</time>
      </trkpt>
      <trkpt lat="44.78161" lon="0.74141">
        <ele>116</ele>
        <time>2010-11-04T13:16:42Z</time>
      </trkpt>
      <trkpt lat="44.78157" lon="0.74142">
        <ele>116</ele>
        <time>2010-11-04T13:16:48Z</time>
      </trkpt>
      <trkpt lat="44.78149" lon="0.74159">
        <ele>116</ele>
        <time>2010-11-04T13:17:03Z</time>
      </trkpt>
      <trkpt lat="44.78142" lon="0.74176">
        <ele>114</ele>
        <time>2010-11-04T13:17:15Z</time>
      </trkpt>
      <trkpt lat="44.78141" lon="0.74182">
        <ele>114</ele>
        <time>2010-11-04T13:17:19Z</time>
      </trkpt>
      <trkpt lat="44.78135" lon="0.74191">
        <ele>113</ele>
        <time>2010-11-04T13:17:26Z</time>
      </trkpt>
      <trkpt lat="44.78124" lon="0.74207">
        <ele>112</ele>
        <time>2010-11-04T13:17:40Z</time>
      </trkpt>
      <trkpt lat="44.78121" lon="0.74214">
        <ele>112</ele>
        <time>2010-11-04T13:17:52Z</time>
      </trkpt>
      <trkpt lat="44.7811" lon="0.74228">
        <ele>111</ele>
        <time>2010-11-04T13:18:06Z</time>
      </trkpt>
      <trkpt lat="44.78103" lon="0.74238">
        <ele>110</ele>
        <time>2010-11-04T13:18:20Z</time>
      </trkpt>
      <trkpt lat="44.78103" lon="0.74239">
        <ele>110</ele>
        <time>2010-11-04T13:18:46Z</time>
      </trkpt>
      <trkpt lat="44.781" lon="0.74247">
        <ele>110</ele>
        <time>2010-11-04T13:19:01Z</time>
      </trkpt>
      <trkpt lat="44.78092" lon="0.7426">
        <ele>108</ele>
        <time>2010-11-04T13:19:13Z</time>
      </trkpt>
      <trkpt lat="44.78084" lon="0.7428">
        <ele>108</ele>
        <time>2010-11-04T13:19:27Z</time>
      </trkpt>
      <trkpt lat="44.78078" lon="0.74299">
        <ele>103</ele>
        <time>2010-11-04T13:19:39Z</time>
      </trkpt>
      <trkpt lat="44.78075" lon="0.74322">
        <ele>103</ele>
        <time>2010-11-04T13:19:53Z</time>
      </trkpt>
      <trkpt lat="44.78076" lon="0.74343">
        <ele>102</ele>
        <time>2010-11-04T13:20:06Z</time>
      </trkpt>
      <trkpt lat="44.78079" lon="0.74365">
        <ele>102</ele>
        <time>2010-11-04T13:20:19Z</time>
      </trkpt>
      <trkpt lat="44.78083" lon="0.7439">
        <ele>101</ele>
        <time>2010-11-04T13:20:32Z</time>
      </trkpt>
      <trkpt lat="44.78085" lon="0.74402">
        <ele>102</ele>
        <time>2010-11-04T13:20:38Z</time>
      </trkpt>
      <trkpt lat="44.78087" lon="0.74407">
        <ele>101</ele>
        <time>2010-11-04T13:20:41Z</time>
      </trkpt>
      <trkpt lat="44.78092" lon="0.74431">
        <ele>101</ele>
        <time>2010-11-04T13:20:55Z</time>
      </trkpt>
      <trkpt lat="44.7809" lon="0.74458">
        <ele>101</ele>
        <time>2010-11-04T13:21:09Z</time>
      </trkpt>
      <trkpt lat="44.78087" lon="0.74472">
        <ele>101</ele>
        <time>2010-11-04T13:21:21Z</time>
      </trkpt>
      <trkpt lat="44.78084" lon="0.74477">
        <ele>101</ele>
        <time>2010-11-04T13:21:25Z</time>
      </trkpt>
      <trkpt lat="44.78081" lon="0.74481">
        <ele>100</ele>
        <time>2010-11-04T13:21:29Z</time>
      </trkpt>
      <trkpt lat="44.78075" lon="0.74486">
        <ele>100</ele>
        <time>2010-11-04T13:21:35Z</time>
      </trkpt>
      <trkpt lat="44.78073" lon="0.74488">
        <ele>100</ele>
        <time>2010-11-04T13:21:37Z</time>
      </trkpt>
      <trkpt lat="44.78069" lon="0.74491">
        <ele>100</ele>
        <time>2010-11-04T13:21:40Z</time>
      </trkpt>
      <trkpt lat="44.7805" lon="0.74504">
        <ele>101</ele>
        <time>2010-11-04T13:21:56Z</time>
      </trkpt>
      <trkpt lat="44.78049" lon="0.74505">
        <ele>101</ele>
        <time>2010-11-04T13:21:57Z</time>
      </trkpt>
      <trkpt lat="44.78032" lon="0.74522">
        <ele>101</ele>
        <time>2010-11-04T13:22:13Z</time>
      </trkpt>
      <trkpt lat="44.78022" lon="0.74536">
        <ele>102</ele>
        <time>2010-11-04T13:22:25Z</time>
      </trkpt>
      <trkpt lat="44.7801" lon="0.74552">
        <ele>102</ele>
        <time>2010-11-04T13:22:38Z</time>
      </trkpt>
      <trkpt lat="44.77999" lon="0.74569">
        <ele>101</ele>
        <time>2010-11-04T13:22:52Z</time>
      </trkpt>
      <trkpt lat="44.77997" lon="0.74573">
        <ele>101</ele>
        <time>2010-11-04T13:22:55Z</time>
      </trkpt>
      <trkpt lat="44.77995" lon="0.74576">
        <ele>101</ele>
        <time>2010-11-04T13:22:58Z</time>
      </trkpt>
      <trkpt lat="44.77988" lon="0.74587">
        <ele>103</ele>
        <time>2010-11-04T13:23:07Z</time>
      </trkpt>
      <trkpt lat="44.77981" lon="0.74598">
        <ele>104</ele>
        <time>2010-11-04T13:23:16Z</time>
      </trkpt>
      <trkpt lat="44.77977" lon="0.74601">
        <ele>104</ele>
        <time>2010-11-04T13:23:20Z</time>
      </trkpt>
      <trkpt lat="44.77963" lon="0.74618">
        <ele>105</ele>
        <time>2010-11-04T13:23:35Z</time>
      </trkpt>
      <trkpt lat="44.7795" lon="0.74635">
        <ele>105</ele>
        <time>2010-11-04T13:23:50Z</time>
      </trkpt>
      <trkpt lat="44.77948" lon="0.74638">
        <ele>105</ele>
        <time>2010-11-04T13:23:52Z</time>
      </trkpt>
      <trkpt lat="44.77939" lon="0.74658">
        <ele>106</ele>
        <time>2010-11-04T13:24:05Z</time>
      </trkpt>
      <trkpt lat="44.77934" lon="0.74671">
        <ele>109</ele>
        <time>2010-11-04T13:24:14Z</time>
      </trkpt>
      <trkpt lat="44.77931" lon="0.74684">
        <ele>109</ele>
        <time>2010-11-04T13:24:23Z</time>
      </trkpt>
      <trkpt lat="44.77931" lon="0.74687">
        <ele>109</ele>
        <time>2010-11-04T13:24:25Z</time>
      </trkpt>
      <trkpt lat="44.77931" lon="0.74699">
        <ele>110</ele>
        <time>2010-11-04T13:24:33Z</time>
      </trkpt>
      <trkpt lat="44.7793" lon="0.74705">
        <ele>110</ele>
        <time>2010-11-04T13:24:37Z</time>
      </trkpt>
      <trkpt lat="44.77929" lon="0.74708">
        <ele>110</ele>
        <time>2010-11-04T13:24:39Z</time>
      </trkpt>
      <trkpt lat="44.77926" lon="0.74728">
        <ele>111</ele>
        <time>2010-11-04T13:24:53Z</time>
      </trkpt>
      <trkpt lat="44.77926" lon="0.7473">
        <ele>111</ele>
        <time>2010-11-04T13:24:55Z</time>
      </trkpt>
      <trkpt lat="44.77926" lon="0.74743">
        <ele>111</ele>
        <time>2010-11-04T13:25:03Z</time>
      </trkpt>
      <trkpt lat="44.77923" lon="0.74765">
        <ele>112</ele>
        <time>2010-11-04T13:25:15Z</time>
      </trkpt>
      <trkpt lat="44.7792" lon="0.74791">
        <ele>111</ele>
        <time>2010-11-04T13:25:31Z</time>
      </trkpt>
      <trkpt lat="44.77917" lon="0.74813">
        <ele>111</ele>
        <time>2010-11-04T13:25:44Z</time>
      </trkpt>
      <trkpt lat="44.77919" lon="0.74828">
        <ele>110</ele>
        <time>2010-11-04T13:25:55Z</time>
      </trkpt>
      <trkpt lat="44.7792" lon="0.74839">
        <ele>109</ele>
        <time>2010-11-04T13:26:01Z</time>
      </trkpt>
      <trkpt lat="44.77921" lon="0.74857">
        <ele>108</ele>
        <time>2010-11-04T13:26:13Z</time>
      </trkpt>
      <trkpt lat="44.77922" lon="0.74875">
        <ele>107</ele>
        <time>2010-11-04T13:26:24Z</time>
      </trkpt>
      <trkpt lat="44.77923" lon="0.74881">
        <ele>107</ele>
        <time>2010-11-04T13:26:27Z</time>
      </trkpt>
      <trkpt lat="44.77924" lon="0.74902">
        <ele>106</ele>
        <time>2010-11-04T13:26:39Z</time>
      </trkpt>
      <trkpt lat="44.77929" lon="0.74918">
        <ele>104</ele>
        <time>2010-11-04T13:26:50Z</time>
      </trkpt>
      <trkpt lat="44.77938" lon="0.74943">
        <ele>104</ele>
        <time>2010-11-04T13:27:07Z</time>
      </trkpt>
      <trkpt lat="44.77939" lon="0.74945">
        <ele>104</ele>
        <time>2010-11-04T13:27:08Z</time>
      </trkpt>
      <trkpt lat="44.77942" lon="0.74956">
        <ele>104</ele>
        <time>2010-11-04T13:27:15Z</time>
      </trkpt>
      <trkpt lat="44.77951" lon="0.74978">
        <ele>104</ele>
        <time>2010-11-04T13:27:29Z</time>
      </trkpt>
      <trkpt lat="44.77954" lon="0.74989">
        <ele>104</ele>
        <time>2010-11-04T13:27:35Z</time>
      </trkpt>
      <trkpt lat="44.7796" lon="0.75014">
        <ele>103</ele>
        <time>2010-11-04T13:27:48Z</time>
      </trkpt>
      <trkpt lat="44.77961" lon="0.75017">
        <ele>103</ele>
        <time>2010-11-04T13:27:50Z</time>
      </trkpt>
      <trkpt lat="44.77968" lon="0.75035">
        <ele>103</ele>
        <time>2010-11-04T13:28:03Z</time>
      </trkpt>
      <trkpt lat="44.77975" lon="0.75053">
        <ele>102</ele>
        <time>2010-11-04T13:28:15Z</time>
      </trkpt>
      <trkpt lat="44.77983" lon="0.75073">
        <ele>100</ele>
        <time>2010-11-04T13:28:28Z</time>
      </trkpt>
      <trkpt lat="44.7799" lon="0.75088">
        <ele>96</ele>
        <time>2010-11-04T13:28:40Z</time>
      </trkpt>
      <trkpt lat="44.77995" lon="0.75101">
        <ele>96</ele>
        <time>2010-11-04T13:28:52Z</time>
      </trkpt>
      <trkpt lat="44.77997" lon="0.75123">
        <ele>95</ele>
        <time>2010-11-04T13:29:02Z</time>
      </trkpt>
      <trkpt lat="44.77997" lon="0.75124">
        <ele>95</ele>
        <time>2010-11-04T13:29:03Z</time>
      </trkpt>
      <trkpt lat="44.77997" lon="0.75138">
        <ele>94</ele>
        <time>2010-11-04T13:29:09Z</time>
      </trkpt>
      <trkpt lat="44.77997" lon="0.75139">
        <ele>94</ele>
        <time>2010-11-04T13:29:10Z</time>
      </trkpt>
      <trkpt lat="44.77998" lon="0.75141">
        <ele>93</ele>
        <time>2010-11-04T13:29:12Z</time>
      </trkpt>
      <trkpt lat="44.78003" lon="0.75135">
        <ele>89</ele>
        <time>2010-11-04T13:29:21Z</time>
      </trkpt>
      <trkpt lat="44.78003" lon="0.75131">
        <ele>89</ele>
        <time>2010-11-04T13:29:25Z</time>
      </trkpt>
      <trkpt lat="44.78003" lon="0.75131">
        <ele>89</ele>
        <time>2010-11-04T13:29:38Z</time>
      </trkpt>
      <trkpt lat="44.78002" lon="0.75131">
        <ele>89</ele>
        <time>2010-11-04T13:29:58Z</time>
      </trkpt>
      <trkpt lat="44.77997" lon="0.75137">
        <ele>94</ele>
        <time>2010-11-04T13:30:43Z</time>
      </trkpt>
      <trkpt lat="44.77993" lon="0.75155">
        <ele>91</ele>
        <time>2010-11-04T13:30:57Z</time>
      </trkpt>
      <trkpt lat="44.77991" lon="0.75159">
        <ele>91</ele>
        <time>2010-11-04T13:31:00Z</time>
      </trkpt>
      <trkpt lat="44.77988" lon="0.75167">
        <ele>86</ele>
        <time>2010-11-04T13:31:05Z</time>
      </trkpt>
      <trkpt lat="44.77986" lon="0.75173">
        <ele>86</ele>
        <time>2010-11-04T13:31:09Z</time>
      </trkpt>
      <trkpt lat="44.77986" lon="0.75173">
        <ele>86</ele>
        <time>2010-11-04T13:31:10Z</time>
      </trkpt>
      <trkpt lat="44.77981" lon="0.75182">
        <ele>86</ele>
        <time>2010-11-04T13:31:15Z</time>
      </trkpt>
      <trkpt lat="44.77963" lon="0.75199">
        <ele>87</ele>
        <time>2010-11-04T13:31:30Z</time>
      </trkpt>
      <trkpt lat="44.77956" lon="0.75205">
        <ele>87</ele>
        <time>2010-11-04T13:31:36Z</time>
      </trkpt>
      <trkpt lat="44.7794" lon="0.75222">
        <ele>86</ele>
        <time>2010-11-04T13:31:50Z</time>
      </trkpt>
      <trkpt lat="44.77935" lon="0.75228">
        <ele>86</ele>
        <time>2010-11-04T13:31:57Z</time>
      </trkpt>
      <trkpt lat="44.7793" lon="0.75233">
        <ele>86</ele>
        <time>2010-11-04T13:32:01Z</time>
      </trkpt>
      <trkpt lat="44.77916" lon="0.75248">
        <ele>85</ele>
        <time>2010-11-04T13:32:14Z</time>
      </trkpt>
      <trkpt lat="44.77903" lon="0.75264">
        <ele>85</ele>
        <time>2010-11-04T13:32:28Z</time>
      </trkpt>
      <trkpt lat="44.77903" lon="0.75264">
        <ele>85</ele>
        <time>2010-11-04T13:32:29Z</time>
      </trkpt>
      <trkpt lat="44.77898" lon="0.75265">
        <ele>85</ele>
        <time>2010-11-04T13:32:32Z</time>
      </trkpt>
      <trkpt lat="44.77886" lon="0.75278">
        <ele>85</ele>
        <time>2010-11-04T13:32:46Z</time>
      </trkpt>
      <trkpt lat="44.77879" lon="0.75288">
        <ele>85</ele>
        <time>2010-11-04T13:32:56Z</time>
      </trkpt>
      <trkpt lat="44.77869" lon="0.75306">
        <ele>84</ele>
        <time>2010-11-04T13:33:08Z</time>
      </trkpt>
      <trkpt lat="44.7786" lon="0.7532">
        <ele>84</ele>
        <time>2010-11-04T13:33:17Z</time>
      </trkpt>
      <trkpt lat="44.7785" lon="0.75337">
        <ele>78</ele>
        <time>2010-11-04T13:33:32Z</time>
      </trkpt>
      <trkpt lat="44.7784" lon="0.7535">
        <ele>78</ele>
        <time>2010-11-04T13:33:43Z</time>
      </trkpt>
      <trkpt lat="44.77824" lon="0.75367">
        <ele>78</ele>
        <time>2010-11-04T13:33:56Z</time>
      </trkpt>
      <trkpt lat="44.77812" lon="0.75377">
        <ele>77</ele>
        <time>2010-11-04T13:34:08Z</time>
      </trkpt>
      <trkpt lat="44.77799" lon="0.75386">
        <ele>77</ele>
        <time>2010-11-04T13:34:20Z</time>
      </trkpt>
      <trkpt lat="44.77798" lon="0.75387">
        <ele>77</ele>
        <time>2010-11-04T13:34:21Z</time>
      </trkpt>
      <trkpt lat="44.77788" lon="0.75394">
        <ele>77</ele>
        <time>2010-11-04T13:34:29Z</time>
      </trkpt>
      <trkpt lat="44.7778" lon="0.754">
        <ele>76</ele>
        <time>2010-11-04T13:34:36Z</time>
      </trkpt>
      <trkpt lat="44.77761" lon="0.75412">
        <ele>75</ele>
        <time>2010-11-04T13:34:52Z</time>
      </trkpt>
      <trkpt lat="44.77743" lon="0.75427">
        <ele>73</ele>
        <time>2010-11-04T13:35:09Z</time>
      </trkpt>
      <trkpt lat="44.77733" lon="0.75447">
        <ele>72</ele>
        <time>2010-11-04T13:35:23Z</time>
      </trkpt>
      <trkpt lat="44.77728" lon="0.75469">
        <ele>72</ele>
        <time>2010-11-04T13:35:36Z</time>
      </trkpt>
      <trkpt lat="44.77723" lon="0.75492">
        <ele>72</ele>
        <time>2010-11-04T13:35:50Z</time>
      </trkpt>
      <trkpt lat="44.77721" lon="0.75516">
        <ele>72</ele>
        <time>2010-11-04T13:36:04Z</time>
      </trkpt>
      <trkpt lat="44.77721" lon="0.75525">
        <ele>72</ele>
        <time>2010-11-04T13:36:09Z</time>
      </trkpt>
      <trkpt lat="44.7772" lon="0.75526">
        <ele>72</ele>
        <time>2010-11-04T13:36:10Z</time>
      </trkpt>
      <trkpt lat="44.77721" lon="0.75531">
        <ele>72</ele>
        <time>2010-11-04T13:36:13Z</time>
      </trkpt>
      <trkpt lat="44.7772" lon="0.75542">
        <ele>73</ele>
        <time>2010-11-04T13:36:19Z</time>
      </trkpt>
      <trkpt lat="44.77715" lon="0.75563">
        <ele>73</ele>
        <time>2010-11-04T13:36:30Z</time>
      </trkpt>
      <trkpt lat="44.777" lon="0.75582">
        <ele>73</ele>
        <time>2010-11-04T13:36:45Z</time>
      </trkpt>
      <trkpt lat="44.77684" lon="0.75596">
        <ele>75</ele>
        <time>2010-11-04T13:36:59Z</time>
      </trkpt>
      <trkpt lat="44.77679" lon="0.756">
        <ele>75</ele>
        <time>2010-11-04T13:37:03Z</time>
      </trkpt>
      <trkpt lat="44.77665" lon="0.75609">
        <ele>74</ele>
        <time>2010-11-04T13:37:13Z</time>
      </trkpt>
      <trkpt lat="44.77652" lon="0.75619">
        <ele>75</ele>
        <time>2010-11-04T13:37:26Z</time>
      </trkpt>
      <trkpt lat="44.77639" lon="0.75624">
        <ele>75</ele>
        <time>2010-11-04T13:37:37Z</time>
      </trkpt>
      <trkpt lat="44.77626" lon="0.75635">
        <ele>76</ele>
        <time>2010-11-04T13:37:50Z</time>
      </trkpt>
      <trkpt lat="44.77614" lon="0.75646">
        <ele>76</ele>
        <time>2010-11-04T13:38:01Z</time>
      </trkpt>
      <trkpt lat="44.77602" lon="0.75654">
        <ele>77</ele>
        <time>2010-11-04T13:38:12Z</time>
      </trkpt>
      <trkpt lat="44.776" lon="0.75657">
        <ele>77</ele>
        <time>2010-11-04T13:38:15Z</time>
      </trkpt>
      <trkpt lat="44.77592" lon="0.75661">
        <ele>78</ele>
        <time>2010-11-04T13:38:22Z</time>
      </trkpt>
      <trkpt lat="44.77576" lon="0.75668">
        <ele>81</ele>
        <time>2010-11-04T13:38:34Z</time>
      </trkpt>
      <trkpt lat="44.77569" lon="0.7567">
        <ele>82</ele>
        <time>2010-11-04T13:38:39Z</time>
      </trkpt>
      <trkpt lat="44.7756" lon="0.75671">
        <ele>82</ele>
        <time>2010-11-04T13:38:47Z</time>
      </trkpt>
      <trkpt lat="44.77551" lon="0.75671">
        <ele>83</ele>
        <time>2010-11-04T13:38:57Z</time>
      </trkpt>
      <trkpt lat="44.7754" lon="0.75674">
        <ele>83</ele>
        <time>2010-11-04T13:39:08Z</time>
      </trkpt>
      <trkpt lat="44.77522" lon="0.75682">
        <ele>83</ele>
        <time>2010-11-04T13:39:23Z</time>
      </trkpt>
      <trkpt lat="44.77499" lon="0.75689">
        <ele>82</ele>
        <time>2010-11-04T13:39:38Z</time>
      </trkpt>
      <trkpt lat="44.77487" lon="0.75695">
        <ele>83</ele>
        <time>2010-11-04T13:39:49Z</time>
      </trkpt>
      <trkpt lat="44.77485" lon="0.75695">
        <ele>83</ele>
        <time>2010-11-04T13:39:51Z</time>
      </trkpt>
      <trkpt lat="44.77467" lon="0.75704">
        <ele>84</ele>
        <time>2010-11-04T13:40:05Z</time>
      </trkpt>
      <trkpt lat="44.7745" lon="0.75711">
        <ele>84</ele>
        <time>2010-11-04T13:40:20Z</time>
      </trkpt>
      <trkpt lat="44.77433" lon="0.75718">
        <ele>84</ele>
        <time>2010-11-04T13:40:33Z</time>
      </trkpt>
      <trkpt lat="44.7743" lon="0.7572">
        <ele>84</ele>
        <time>2010-11-04T13:40:36Z</time>
      </trkpt>
      <trkpt lat="44.77417" lon="0.75725">
        <ele>84</ele>
        <time>2010-11-04T13:40:48Z</time>
      </trkpt>
      <trkpt lat="44.77402" lon="0.75734">
        <ele>84</ele>
        <time>2010-11-04T13:41:01Z</time>
      </trkpt>
      <trkpt lat="44.77384" lon="0.75746">
        <ele>83</ele>
        <time>2010-11-04T13:41:16Z</time>
      </trkpt>
      <trkpt lat="44.77374" lon="0.75756">
        <ele>87</ele>
        <time>2010-11-04T13:41:29Z</time>
      </trkpt>
      <trkpt lat="44.7736" lon="0.75772">
        <ele>87</ele>
        <time>2010-11-04T13:41:41Z</time>
      </trkpt>
      <trkpt lat="44.77359" lon="0.75773">
        <ele>87</ele>
        <time>2010-11-04T13:41:42Z</time>
      </trkpt>
      <trkpt lat="44.77356" lon="0.75778">
        <ele>87</ele>
        <time>2010-11-04T13:41:45Z</time>
      </trkpt>
      <trkpt lat="44.77349" lon="0.75789">
        <ele>87</ele>
        <time>2010-11-04T13:41:57Z</time>
      </trkpt>
      <trkpt lat="44.77344" lon="0.75795">
        <ele>88</ele>
        <time>2010-11-04T13:42:08Z</time>
      </trkpt>
      <trkpt lat="44.77326" lon="0.75815">
        <ele>86</ele>
        <time>2010-11-04T13:42:20Z</time>
      </trkpt>
      <trkpt lat="44.77322" lon="0.75826">
        <ele>86</ele>
        <time>2010-11-04T13:42:33Z</time>
      </trkpt>
      <trkpt lat="44.7732" lon="0.75829">
        <ele>86</ele>
        <time>2010-11-04T13:42:41Z</time>
      </trkpt>
      <trkpt lat="44.77316" lon="0.75836">
        <ele>87</ele>
        <time>2010-11-04T13:42:46Z</time>
      </trkpt>
      <trkpt lat="44.77309" lon="0.75854">
        <ele>86</ele>
        <time>2010-11-04T13:42:56Z</time>
      </trkpt>
      <trkpt lat="44.77303" lon="0.75873">
        <ele>86</ele>
        <time>2010-11-04T13:43:05Z</time>
      </trkpt>
      <trkpt lat="44.773" lon="0.75894">
        <ele>87</ele>
        <time>2010-11-04T13:43:17Z</time>
      </trkpt>
      <trkpt lat="44.77296" lon="0.75911">
        <ele>87</ele>
        <time>2010-11-04T13:43:30Z</time>
      </trkpt>
      <trkpt lat="44.77291" lon="0.75927">
        <ele>89</ele>
        <time>2010-11-04T13:43:42Z</time>
      </trkpt>
      <trkpt lat="44.77286" lon="0.75943">
        <ele>90</ele>
        <time>2010-11-04T13:43:54Z</time>
      </trkpt>
      <trkpt lat="44.77281" lon="0.75958">
        <ele>91</ele>
        <time>2010-11-04T13:44:06Z</time>
      </trkpt>
      <trkpt lat="44.77273" lon="0.75977">
        <ele>91</ele>
        <time>2010-11-04T13:44:18Z</time>
      </trkpt>
      <trkpt lat="44.7727" lon="0.75986">
        <ele>92</ele>
        <time>2010-11-04T13:44:25Z</time>
      </trkpt>
      <trkpt lat="44.77266" lon="0.75996">
        <ele>92</ele>
        <time>2010-11-04T13:44:32Z</time>
      </trkpt>
      <trkpt lat="44.7726" lon="0.76015">
        <ele>97</ele>
        <time>2010-11-04T13:44:43Z</time>
      </trkpt>
      <trkpt lat="44.77253" lon="0.76033">
        <ele>99</ele>
        <time>2010-11-04T13:44:55Z</time>
      </trkpt>
      <trkpt lat="44.77251" lon="0.76038">
        <ele>100</ele>
        <time>2010-11-04T13:45:01Z</time>
      </trkpt>
      <trkpt lat="44.77247" lon="0.76049">
        <ele>99</ele>
        <time>2010-11-04T13:45:10Z</time>
      </trkpt>
      <trkpt lat="44.77246" lon="0.76051">
        <ele>99</ele>
        <time>2010-11-04T13:45:12Z</time>
      </trkpt>
      <trkpt lat="44.7724" lon="0.76079">
        <ele>103</ele>
        <time>2010-11-04T13:45:28Z</time>
      </trkpt>
      <trkpt lat="44.77239" lon="0.76086">
        <ele>106</ele>
        <time>2010-11-04T13:45:33Z</time>
      </trkpt>
      <trkpt lat="44.77238" lon="0.76105">
        <ele>106</ele>
        <time>2010-11-04T13:45:44Z</time>
      </trkpt>
      <trkpt lat="44.77243" lon="0.76122">
        <ele>106</ele>
        <time>2010-11-04T13:45:56Z</time>
      </trkpt>
      <trkpt lat="44.77246" lon="0.76134">
        <ele>107</ele>
        <time>2010-11-04T13:46:06Z</time>
      </trkpt>
      <trkpt lat="44.77246" lon="0.76145">
        <ele>108</ele>
        <time>2010-11-04T13:46:12Z</time>
      </trkpt>
      <trkpt lat="44.77245" lon="0.76161">
        <ele>110</ele>
        <time>2010-11-04T13:46:21Z</time>
      </trkpt>
      <trkpt lat="44.77244" lon="0.76172">
        <ele>111</ele>
        <time>2010-11-04T13:46:27Z</time>
      </trkpt>
      <trkpt lat="44.77243" lon="0.76192">
        <ele>111</ele>
        <time>2010-11-04T13:46:39Z</time>
      </trkpt>
      <trkpt lat="44.77242" lon="0.76216">
        <ele>112</ele>
        <time>2010-11-04T13:46:53Z</time>
      </trkpt>
      <trkpt lat="44.77242" lon="0.76239">
        <ele>115</ele>
        <time>2010-11-04T13:47:06Z</time>
      </trkpt>
      <trkpt lat="44.77241" lon="0.76255">
        <ele>117</ele>
        <time>2010-11-04T13:47:17Z</time>
      </trkpt>
      <trkpt lat="44.77241" lon="0.76256">
        <ele>117</ele>
        <time>2010-11-04T13:47:18Z</time>
      </trkpt>
      <trkpt lat="44.77238" lon="0.76271">
        <ele>116</ele>
        <time>2010-11-04T13:47:26Z</time>
      </trkpt>
      <trkpt lat="44.77238" lon="0.76288">
        <ele>116</ele>
        <time>2010-11-04T13:47:36Z</time>
      </trkpt>
      <trkpt lat="44.77238" lon="0.76291">
        <ele>116</ele>
        <time>2010-11-04T13:47:38Z</time>
      </trkpt>
      <trkpt lat="44.77236" lon="0.76305">
        <ele>116</ele>
        <time>2010-11-04T13:47:45Z</time>
      </trkpt>
      <trkpt lat="44.77232" lon="0.76329">
        <ele>117</ele>
        <time>2010-11-04T13:47:57Z</time>
      </trkpt>
      <trkpt lat="44.77232" lon="0.76333">
        <ele>117</ele>
        <time>2010-11-04T13:48:00Z</time>
      </trkpt>
      <trkpt lat="44.7723" lon="0.76353">
        <ele>120</ele>
        <time>2010-11-04T13:48:11Z</time>
      </trkpt>
      <trkpt lat="44.77224" lon="0.76379">
        <ele>121</ele>
        <time>2010-11-04T13:48:25Z</time>
      </trkpt>
      <trkpt lat="44.7722" lon="0.76383">
        <ele>121</ele>
        <time>2010-11-04T13:48:31Z</time>
      </trkpt>
      <trkpt lat="44.77204" lon="0.76392">
        <ele>121</ele>
        <time>2010-11-04T13:48:44Z</time>
      </trkpt>
      <trkpt lat="44.77195" lon="0.76401">
        <ele>122</ele>
        <time>2010-11-04T13:48:55Z</time>
      </trkpt>
      <trkpt lat="44.7719" lon="0.76407">
        <ele>122</ele>
        <time>2010-11-04T13:48:59Z</time>
      </trkpt>
      <trkpt lat="44.77186" lon="0.76416">
        <ele>122</ele>
        <time>2010-11-04T13:49:06Z</time>
      </trkpt>
      <trkpt lat="44.77177" lon="0.76432">
        <ele>127</ele>
        <time>2010-11-04T13:49:17Z</time>
      </trkpt>
      <trkpt lat="44.77168" lon="0.76458">
        <ele>129</ele>
        <time>2010-11-04T13:49:30Z</time>
      </trkpt>
      <trkpt lat="44.77163" lon="0.76474">
        <ele>129</ele>
        <time>2010-11-04T13:49:43Z</time>
      </trkpt>
      <trkpt lat="44.77163" lon="0.76475">
        <ele>129</ele>
        <time>2010-11-04T13:49:50Z</time>
      </trkpt>
      <trkpt lat="44.77162" lon="0.76492">
        <ele>132</ele>
        <time>2010-11-04T13:50:01Z</time>
      </trkpt>
      <trkpt lat="44.77161" lon="0.76494">
        <ele>132</ele>
        <time>2010-11-04T13:50:02Z</time>
      </trkpt>
      <trkpt lat="44.77158" lon="0.76506">
        <ele>135</ele>
        <time>2010-11-04T13:50:09Z</time>
      </trkpt>
      <trkpt lat="44.77145" lon="0.76531">
        <ele>135</ele>
        <time>2010-11-04T13:50:26Z</time>
      </trkpt>
      <trkpt lat="44.77137" lon="0.76541">
        <ele>135</ele>
        <time>2010-11-04T13:50:38Z</time>
      </trkpt>
      <trkpt lat="44.77129" lon="0.76552">
        <ele>135</ele>
        <time>2010-11-04T13:50:47Z</time>
      </trkpt>
      <trkpt lat="44.77113" lon="0.76567">
        <ele>135</ele>
        <time>2010-11-04T13:51:00Z</time>
      </trkpt>
      <trkpt lat="44.77104" lon="0.76573">
        <ele>136</ele>
        <time>2010-11-04T13:51:08Z</time>
      </trkpt>
      <trkpt lat="44.77101" lon="0.76574">
        <ele>136</ele>
        <time>2010-11-04T13:51:10Z</time>
      </trkpt>
      <trkpt lat="44.77094" lon="0.76579">
        <ele>136</ele>
        <time>2010-11-04T13:51:16Z</time>
      </trkpt>
      <trkpt lat="44.77075" lon="0.7659">
        <ele>137</ele>
        <time>2010-11-04T13:51:32Z</time>
      </trkpt>
      <trkpt lat="44.77058" lon="0.76604">
        <ele>137</ele>
        <time>2010-11-04T13:51:47Z</time>
      </trkpt>
      <trkpt lat="44.77044" lon="0.76615">
        <ele>137</ele>
        <time>2010-11-04T13:52:00Z</time>
      </trkpt>
      <trkpt lat="44.77042" lon="0.76616">
        <ele>137</ele>
        <time>2010-11-04T13:52:01Z</time>
      </trkpt>
      <trkpt lat="44.77024" lon="0.76627">
        <ele>137</ele>
        <time>2010-11-04T13:52:16Z</time>
      </trkpt>
      <trkpt lat="44.77008" lon="0.76636">
        <ele>138</ele>
        <time>2010-11-04T13:52:29Z</time>
      </trkpt>
      <trkpt lat="44.77006" lon="0.76637">
        <ele>138</ele>
        <time>2010-11-04T13:52:30Z</time>
      </trkpt>
      <trkpt lat="44.77" lon="0.76637">
        <ele>138</ele>
        <time>2010-11-04T13:52:34Z</time>
      </trkpt>
      <trkpt lat="44.76987" lon="0.76646">
        <ele>137</ele>
        <time>2010-11-04T13:52:46Z</time>
      </trkpt>
      <trkpt lat="44.76981" lon="0.76652">
        <ele>137</ele>
        <time>2010-11-04T13:52:52Z</time>
      </trkpt>
      <trkpt lat="44.76984" lon="0.76673">
        <ele>141</ele>
        <time>2010-11-04T13:53:04Z</time>
      </trkpt>
      <trkpt lat="44.76985" lon="0.76677">
        <ele>141</ele>
        <time>2010-11-04T13:53:22Z</time>
      </trkpt>
      <trkpt lat="44.76979" lon="0.7668">
        <ele>141</ele>
        <time>2010-11-04T13:53:29Z</time>
      </trkpt>
      <trkpt lat="44.76967" lon="0.76682">
        <ele>141</ele>
        <time>2010-11-04T13:53:39Z</time>
      </trkpt>
      <trkpt lat="44.76948" lon="0.76692">
        <ele>141</ele>
        <time>2010-11-04T13:53:53Z</time>
      </trkpt>
      <trkpt lat="44.76945" lon="0.76692">
        <ele>141</ele>
        <time>2010-11-04T13:53:55Z</time>
      </trkpt>
      <trkpt lat="44.76944" lon="0.76692">
        <ele>141</ele>
        <time>2010-11-04T13:53:56Z</time>
      </trkpt>
      <trkpt lat="44.7694" lon="0.76694">
        <ele>141</ele>
        <time>2010-11-04T13:53:59Z</time>
      </trkpt>
      <trkpt lat="44.76937" lon="0.76695">
        <ele>141</ele>
        <time>2010-11-04T13:54:01Z</time>
      </trkpt>
      <trkpt lat="44.76934" lon="0.76697">
        <ele>141</ele>
        <time>2010-11-04T13:54:13Z</time>
      </trkpt>
      <trkpt lat="44.76922" lon="0.76699">
        <ele>141</ele>
        <time>2010-11-04T13:54:34Z</time>
      </trkpt>
      <trkpt lat="44.76918" lon="0.76699">
        <ele>141</ele>
        <time>2010-11-04T13:54:39Z</time>
      </trkpt>
      <trkpt lat="44.76908" lon="0.76703">
        <ele>140</ele>
        <time>2010-11-04T13:54:48Z</time>
      </trkpt>
      <trkpt lat="44.76907" lon="0.76704">
        <ele>140</ele>
        <time>2010-11-04T13:54:49Z</time>
      </trkpt>
      <trkpt lat="44.76905" lon="0.76706">
        <ele>141</ele>
        <time>2010-11-04T13:54:50Z</time>
      </trkpt>
      <trkpt lat="44.76896" lon="0.76718">
        <ele>141</ele>
        <time>2010-11-04T13:54:58Z</time>
      </trkpt>
      <trkpt lat="44.76896" lon="0.76718">
        <ele>141</ele>
        <time>2010-11-04T13:54:59Z</time>
      </trkpt>
      <trkpt lat="44.76888" lon="0.76722">
        <ele>141</ele>
        <time>2010-11-04T13:55:11Z</time>
      </trkpt>
      <trkpt lat="44.76884" lon="0.76725">
        <ele>141</ele>
        <time>2010-11-04T13:55:30Z</time>
      </trkpt>
      <trkpt lat="44.76876" lon="0.76725">
        <ele>141</ele>
        <time>2010-11-04T13:55:45Z</time>
      </trkpt>
      <trkpt lat="44.76863" lon="0.76726">
        <ele>141</ele>
        <time>2010-11-04T13:55:55Z</time>
      </trkpt>
      <trkpt lat="44.76851" lon="0.76725">
        <ele>141</ele>
        <time>2010-11-04T13:56:06Z</time>
      </trkpt>
      <trkpt lat="44.7685" lon="0.76726">
        <ele>141</ele>
        <time>2010-11-04T13:56:07Z</time>
      </trkpt>
      <trkpt lat="44.76843" lon="0.76727">
        <ele>141</ele>
        <time>2010-11-04T13:56:13Z</time>
      </trkpt>
      <trkpt lat="44.76841" lon="0.76726">
        <ele>141</ele>
        <time>2010-11-04T13:56:15Z</time>
      </trkpt>
      <trkpt lat="44.76827" lon="0.76732">
        <ele>143</ele>
        <time>2010-11-04T13:56:27Z</time>
      </trkpt>
      <trkpt lat="44.76814" lon="0.76727">
        <ele>143</ele>
        <time>2010-11-04T13:56:37Z</time>
      </trkpt>
      <trkpt lat="44.76797" lon="0.7673">
        <ele>143</ele>
        <time>2010-11-04T13:56:50Z</time>
      </trkpt>
      <trkpt lat="44.7678" lon="0.76731">
        <ele>144</ele>
        <time>2010-11-04T13:57:03Z</time>
      </trkpt>
      <trkpt lat="44.76778" lon="0.76731">
        <ele>144</ele>
        <time>2010-11-04T13:57:05Z</time>
      </trkpt>
      <trkpt lat="44.76773" lon="0.76734">
        <ele>144</ele>
        <time>2010-11-04T13:57:10Z</time>
      </trkpt>
      <trkpt lat="44.76758" lon="0.76729">
        <ele>144</ele>
        <time>2010-11-04T13:57:23Z</time>
      </trkpt>
      <trkpt lat="44.76752" lon="0.76729">
        <ele>145</ele>
        <time>2010-11-04T13:57:34Z</time>
      </trkpt>
      <trkpt lat="44.7674" lon="0.76725">
        <ele>145</ele>
        <time>2010-11-04T13:57:44Z</time>
      </trkpt>
      <trkpt lat="44.76733" lon="0.76721">
        <ele>145</ele>
        <time>2010-11-04T13:57:52Z</time>
      </trkpt>
      <trkpt lat="44.76724" lon="0.76721">
        <ele>144</ele>
        <time>2010-11-04T13:58:00Z</time>
      </trkpt>
      <trkpt lat="44.76703" lon="0.7673">
        <ele>144</ele>
        <time>2010-11-04T13:58:15Z</time>
      </trkpt>
      <trkpt lat="44.76694" lon="0.7673">
        <ele>144</ele>
        <time>2010-11-04T13:58:24Z</time>
      </trkpt>
      <trkpt lat="44.76676" lon="0.76736">
        <ele>145</ele>
        <time>2010-11-04T13:58:36Z</time>
      </trkpt>
      <trkpt lat="44.76672" lon="0.76737">
        <ele>145</ele>
        <time>2010-11-04T13:58:41Z</time>
      </trkpt>
      <trkpt lat="44.7667" lon="0.76736">
        <ele>145</ele>
        <time>2010-11-04T13:58:43Z</time>
      </trkpt>
      <trkpt lat="44.76663" lon="0.76731">
        <ele>144</ele>
        <time>2010-11-04T13:58:51Z</time>
      </trkpt>
      <trkpt lat="44.76662" lon="0.76731">
        <ele>144</ele>
        <time>2010-11-04T13:58:52Z</time>
      </trkpt>
      <trkpt lat="44.76662" lon="0.76729">
        <ele>143</ele>
        <time>2010-11-04T13:58:59Z</time>
      </trkpt>
      <trkpt lat="44.76662" lon="0.76729">
        <ele>143</ele>
        <time>2010-11-04T13:59:00Z</time>
      </trkpt>
      <trkpt lat="44.76662" lon="0.76729">
        <ele>143</ele>
        <time>2010-11-04T13:59:01Z</time>
      </trkpt>
      <trkpt lat="44.76662" lon="0.76729">
        <ele>143</ele>
        <time>2010-11-04T13:59:02Z</time>
      </trkpt>
      <trkpt lat="44.76662" lon="0.76729">
        <ele>143</ele>
        <time>2010-11-04T13:59:04Z</time>
      </trkpt>
      <trkpt lat="44.76662" lon="0.76729">
        <ele>143</ele>
        <time>2010-11-04T13:59:05Z</time>
      </trkpt>
      <trkpt lat="44.76662" lon="0.76729">
        <ele>143</ele>
        <time>2010-11-04T13:59:07Z</time>
      </trkpt>
      <trkpt lat="44.76662" lon="0.76729">
        <ele>143</ele>
        <time>2010-11-04T13:59:08Z</time>
      </trkpt>
      <trkpt lat="44.76662" lon="0.76729">
        <ele>143</ele>
        <time>2010-11-04T13:59:16Z</time>
      </trkpt>
    </trkseg>
  </trk>
</gpx>